<?xml version="1.0" encoding="UTF-8" standalone="no" ?>
<gpx xmlns="http://www.topografix.com/GPX/1/1" xmlns:xsi="http://www.w3.org/2001/XMLSchema-instance" xsi:schemaLocation="http://www.topografix.com/GPX/1/1 http://www.topografix.com/GPX/1/1/gpx.xsd" version="1.1" creator="VisuGPX - https://www.visugpx.com">
  <metadata>
    <name>Du côté de Marly la Ville</name>
    <desc><![CDATA[Départ et arrivée à la gare RER de Survilliers-Fosses. Nous passerons par le Vieux Fosses, le hameau de St Ladres, Marly la Ville, Au-Delà de l'eau, BelleFontaine, l'avenue de Beaumont, Fosses. Daniel BAIJOT]]></desc>
  </metadata>
  <trk>
    <name><![CDATA[17-JAN-14 10:23:24]]></name>
    <trkseg>
      <trkpt lat="49.09944" lon="2.52546">
        <ele>111.65</ele>
        <time>2014-01-17T07:14:11Z</time>
      </trkpt>
      <trkpt lat="49.09946" lon="2.52548">
        <ele>113.09</ele>
        <time>2014-01-17T07:14:22Z</time>
      </trkpt>
      <trkpt lat="49.09938" lon="2.52543">
        <ele>117.42</ele>
        <time>2014-01-17T07:14:37Z</time>
      </trkpt>
      <trkpt lat="49.09943" lon="2.52533">
        <ele>115.98</ele>
        <time>2014-01-17T07:14:52Z</time>
      </trkpt>
      <trkpt lat="49.09957" lon="2.52534">
        <ele>111.65</ele>
        <time>2014-01-17T07:15:06Z</time>
      </trkpt>
      <trkpt lat="49.09975" lon="2.52528">
        <ele>106.84</ele>
        <time>2014-01-17T07:15:25Z</time>
      </trkpt>
      <trkpt lat="49.1" lon="2.5252">
        <ele>104.44</ele>
        <time>2014-01-17T07:15:44Z</time>
      </trkpt>
      <trkpt lat="49.10014" lon="2.52509">
        <ele>102.52</ele>
        <time>2014-01-17T07:15:58Z</time>
      </trkpt>
      <trkpt lat="49.10028" lon="2.52496">
        <ele>102.04</ele>
        <time>2014-01-17T07:16:10Z</time>
      </trkpt>
      <trkpt lat="49.10035" lon="2.52491">
        <ele>102.04</ele>
        <time>2014-01-17T07:16:15Z</time>
      </trkpt>
      <trkpt lat="49.10047" lon="2.52485">
        <ele>98.67</ele>
        <time>2014-01-17T07:16:27Z</time>
      </trkpt>
      <trkpt lat="49.10064" lon="2.52493">
        <ele>95.31</ele>
        <time>2014-01-17T07:16:49Z</time>
      </trkpt>
      <trkpt lat="49.1006" lon="2.52456">
        <ele>101.56</ele>
        <time>2014-01-17T07:17:01Z</time>
      </trkpt>
      <trkpt lat="49.10073" lon="2.52456">
        <ele>101.08</ele>
        <time>2014-01-17T07:17:16Z</time>
      </trkpt>
      <trkpt lat="49.10093" lon="2.52442">
        <ele>105.4</ele>
        <time>2014-01-17T07:17:32Z</time>
      </trkpt>
      <trkpt lat="49.10102" lon="2.52442">
        <ele>107.32</ele>
        <time>2014-01-17T07:17:40Z</time>
      </trkpt>
      <trkpt lat="49.10109" lon="2.5244">
        <ele>107.81</ele>
        <time>2014-01-17T07:17:46Z</time>
      </trkpt>
      <trkpt lat="49.10122" lon="2.52415">
        <ele>111.17</ele>
        <time>2014-01-17T07:18:03Z</time>
      </trkpt>
      <trkpt lat="49.10129" lon="2.52381">
        <ele>113.09</ele>
        <time>2014-01-17T07:18:20Z</time>
      </trkpt>
      <trkpt lat="49.10138" lon="2.52343">
        <ele>113.57</ele>
        <time>2014-01-17T07:18:40Z</time>
      </trkpt>
      <trkpt lat="49.1014" lon="2.52328">
        <ele>113.09</ele>
        <time>2014-01-17T07:18:49Z</time>
      </trkpt>
      <trkpt lat="49.10146" lon="2.52291">
        <ele>110.21</ele>
        <time>2014-01-17T07:19:08Z</time>
      </trkpt>
      <trkpt lat="49.10152" lon="2.52265">
        <ele>110.69</ele>
        <time>2014-01-17T07:19:21Z</time>
      </trkpt>
      <trkpt lat="49.10159" lon="2.52233">
        <ele>112.61</ele>
        <time>2014-01-17T07:19:37Z</time>
      </trkpt>
      <trkpt lat="49.10163" lon="2.5221">
        <ele>112.13</ele>
        <time>2014-01-17T07:19:50Z</time>
      </trkpt>
      <trkpt lat="49.1017" lon="2.52174">
        <ele>112.13</ele>
        <time>2014-01-17T07:20:09Z</time>
      </trkpt>
      <trkpt lat="49.10173" lon="2.52142">
        <ele>111.17</ele>
        <time>2014-01-17T07:20:25Z</time>
      </trkpt>
      <trkpt lat="49.1018" lon="2.52111">
        <ele>111.17</ele>
        <time>2014-01-17T07:20:40Z</time>
      </trkpt>
      <trkpt lat="49.10185" lon="2.5209">
        <ele>110.69</ele>
        <time>2014-01-17T07:20:51Z</time>
      </trkpt>
      <trkpt lat="49.10194" lon="2.52054">
        <ele>113.57</ele>
        <time>2014-01-17T07:21:07Z</time>
      </trkpt>
      <trkpt lat="49.10204" lon="2.52016">
        <ele>115.98</ele>
        <time>2014-01-17T07:21:25Z</time>
      </trkpt>
      <trkpt lat="49.10212" lon="2.51983">
        <ele>116.46</ele>
        <time>2014-01-17T07:21:41Z</time>
      </trkpt>
      <trkpt lat="49.1022" lon="2.51949">
        <ele>116.46</ele>
        <time>2014-01-17T07:21:58Z</time>
      </trkpt>
      <trkpt lat="49.10229" lon="2.51911">
        <ele>116.46</ele>
        <time>2014-01-17T07:22:17Z</time>
      </trkpt>
      <trkpt lat="49.10236" lon="2.51881">
        <ele>114.53</ele>
        <time>2014-01-17T07:22:32Z</time>
      </trkpt>
      <trkpt lat="49.10241" lon="2.51848">
        <ele>114.53</ele>
        <time>2014-01-17T07:22:48Z</time>
      </trkpt>
      <trkpt lat="49.10251" lon="2.51816">
        <ele>114.53</ele>
        <time>2014-01-17T07:23:04Z</time>
      </trkpt>
      <trkpt lat="49.10251" lon="2.51813">
        <ele>114.53</ele>
        <time>2014-01-17T07:23:05Z</time>
      </trkpt>
      <trkpt lat="49.1026" lon="2.5178">
        <ele>113.09</ele>
        <time>2014-01-17T07:23:22Z</time>
      </trkpt>
      <trkpt lat="49.10265" lon="2.51761">
        <ele>115.01</ele>
        <time>2014-01-17T07:23:32Z</time>
      </trkpt>
      <trkpt lat="49.1027" lon="2.5173">
        <ele>115.98</ele>
        <time>2014-01-17T07:23:48Z</time>
      </trkpt>
      <trkpt lat="49.10276" lon="2.51695">
        <ele>114.53</ele>
        <time>2014-01-17T07:24:05Z</time>
      </trkpt>
      <trkpt lat="49.10282" lon="2.51659">
        <ele>115.98</ele>
        <time>2014-01-17T07:24:22Z</time>
      </trkpt>
      <trkpt lat="49.10285" lon="2.51629">
        <ele>113.57</ele>
        <time>2014-01-17T07:24:37Z</time>
      </trkpt>
      <trkpt lat="49.10287" lon="2.51609">
        <ele>114.05</ele>
        <time>2014-01-17T07:24:47Z</time>
      </trkpt>
      <trkpt lat="49.10303" lon="2.51582">
        <ele>116.94</ele>
        <time>2014-01-17T07:25:02Z</time>
      </trkpt>
      <trkpt lat="49.10306" lon="2.5155">
        <ele>116.94</ele>
        <time>2014-01-17T07:25:18Z</time>
      </trkpt>
      <trkpt lat="49.10308" lon="2.51522">
        <ele>111.17</ele>
        <time>2014-01-17T07:25:34Z</time>
      </trkpt>
      <trkpt lat="49.10307" lon="2.51511">
        <ele>110.21</ele>
        <time>2014-01-17T07:25:39Z</time>
      </trkpt>
      <trkpt lat="49.10312" lon="2.51493">
        <ele>108.29</ele>
        <time>2014-01-17T07:25:48Z</time>
      </trkpt>
      <trkpt lat="49.10315" lon="2.51452">
        <ele>108.29</ele>
        <time>2014-01-17T07:26:07Z</time>
      </trkpt>
      <trkpt lat="49.10315" lon="2.51427">
        <ele>110.21</ele>
        <time>2014-01-17T07:26:22Z</time>
      </trkpt>
      <trkpt lat="49.10317" lon="2.51391">
        <ele>107.81</ele>
        <time>2014-01-17T07:26:37Z</time>
      </trkpt>
      <trkpt lat="49.10312" lon="2.51351">
        <ele>109.25</ele>
        <time>2014-01-17T07:26:56Z</time>
      </trkpt>
      <trkpt lat="49.1031" lon="2.51309">
        <ele>114.53</ele>
        <time>2014-01-17T07:27:18Z</time>
      </trkpt>
      <trkpt lat="49.10311" lon="2.51276">
        <ele>117.9</ele>
        <time>2014-01-17T07:27:32Z</time>
      </trkpt>
      <trkpt lat="49.10307" lon="2.5124">
        <ele>119.82</ele>
        <time>2014-01-17T07:27:49Z</time>
      </trkpt>
      <trkpt lat="49.10303" lon="2.51204">
        <ele>121.26</ele>
        <time>2014-01-17T07:28:08Z</time>
      </trkpt>
      <trkpt lat="49.10302" lon="2.51167">
        <ele>121.74</ele>
        <time>2014-01-17T07:28:25Z</time>
      </trkpt>
      <trkpt lat="49.103" lon="2.51131">
        <ele>122.71</ele>
        <time>2014-01-17T07:28:42Z</time>
      </trkpt>
      <trkpt lat="49.10297" lon="2.51097">
        <ele>122.22</ele>
        <time>2014-01-17T07:28:58Z</time>
      </trkpt>
      <trkpt lat="49.10295" lon="2.51063">
        <ele>123.19</ele>
        <time>2014-01-17T07:29:15Z</time>
      </trkpt>
      <trkpt lat="49.10293" lon="2.51032">
        <ele>123.67</ele>
        <time>2014-01-17T07:29:32Z</time>
      </trkpt>
      <trkpt lat="49.10289" lon="2.50995">
        <ele>123.67</ele>
        <time>2014-01-17T07:29:47Z</time>
      </trkpt>
      <trkpt lat="49.10285" lon="2.50956">
        <ele>123.67</ele>
        <time>2014-01-17T07:30:03Z</time>
      </trkpt>
      <trkpt lat="49.10284" lon="2.50927">
        <ele>122.22</ele>
        <time>2014-01-17T07:30:17Z</time>
      </trkpt>
      <trkpt lat="49.10286" lon="2.50919">
        <ele>121.74</ele>
        <time>2014-01-17T07:30:21Z</time>
      </trkpt>
      <trkpt lat="49.10304" lon="2.5088">
        <ele>122.22</ele>
        <time>2014-01-17T07:30:43Z</time>
      </trkpt>
      <trkpt lat="49.10324" lon="2.50876">
        <ele>122.71</ele>
        <time>2014-01-17T07:30:59Z</time>
      </trkpt>
      <trkpt lat="49.10352" lon="2.50876">
        <ele>123.19</ele>
        <time>2014-01-17T07:31:20Z</time>
      </trkpt>
      <trkpt lat="49.10352" lon="2.50877">
        <ele>122.71</ele>
        <time>2014-01-17T07:31:32Z</time>
      </trkpt>
      <trkpt lat="49.10357" lon="2.50843">
        <ele>122.71</ele>
        <time>2014-01-17T07:31:49Z</time>
      </trkpt>
      <trkpt lat="49.10361" lon="2.50798">
        <ele>121.26</ele>
        <time>2014-01-17T07:32:11Z</time>
      </trkpt>
      <trkpt lat="49.1037" lon="2.50758">
        <ele>120.78</ele>
        <time>2014-01-17T07:32:30Z</time>
      </trkpt>
      <trkpt lat="49.10381" lon="2.50725">
        <ele>120.3</ele>
        <time>2014-01-17T07:32:47Z</time>
      </trkpt>
      <trkpt lat="49.10385" lon="2.5069">
        <ele>120.78</ele>
        <time>2014-01-17T07:33:04Z</time>
      </trkpt>
      <trkpt lat="49.10379" lon="2.50656">
        <ele>118.38</ele>
        <time>2014-01-17T07:33:21Z</time>
      </trkpt>
      <trkpt lat="49.10378" lon="2.50654">
        <ele>118.38</ele>
        <time>2014-01-17T07:33:22Z</time>
      </trkpt>
      <trkpt lat="49.10379" lon="2.50646">
        <ele>118.38</ele>
        <time>2014-01-17T07:33:26Z</time>
      </trkpt>
      <trkpt lat="49.10377" lon="2.5061">
        <ele>118.38</ele>
        <time>2014-01-17T07:33:43Z</time>
      </trkpt>
      <trkpt lat="49.10377" lon="2.50572">
        <ele>116.94</ele>
        <time>2014-01-17T07:34:00Z</time>
      </trkpt>
      <trkpt lat="49.10377" lon="2.50539">
        <ele>116.94</ele>
        <time>2014-01-17T07:34:15Z</time>
      </trkpt>
      <trkpt lat="49.10377" lon="2.50507">
        <ele>115.98</ele>
        <time>2014-01-17T07:34:30Z</time>
      </trkpt>
      <trkpt lat="49.10381" lon="2.50474">
        <ele>115.5</ele>
        <time>2014-01-17T07:34:45Z</time>
      </trkpt>
      <trkpt lat="49.10388" lon="2.50435">
        <ele>115.98</ele>
        <time>2014-01-17T07:35:03Z</time>
      </trkpt>
      <trkpt lat="49.10393" lon="2.504">
        <ele>116.94</ele>
        <time>2014-01-17T07:35:19Z</time>
      </trkpt>
      <trkpt lat="49.10379" lon="2.5039">
        <ele>114.53</ele>
        <time>2014-01-17T07:35:31Z</time>
      </trkpt>
      <trkpt lat="49.10356" lon="2.5038">
        <ele>113.09</ele>
        <time>2014-01-17T07:35:48Z</time>
      </trkpt>
      <trkpt lat="49.10336" lon="2.50371">
        <ele>112.13</ele>
        <time>2014-01-17T07:36:02Z</time>
      </trkpt>
      <trkpt lat="49.10317" lon="2.50363">
        <ele>110.21</ele>
        <time>2014-01-17T07:36:15Z</time>
      </trkpt>
      <trkpt lat="49.10313" lon="2.50362">
        <ele>110.21</ele>
        <time>2014-01-17T07:36:18Z</time>
      </trkpt>
      <trkpt lat="49.10291" lon="2.50353">
        <ele>110.21</ele>
        <time>2014-01-17T07:36:34Z</time>
      </trkpt>
      <trkpt lat="49.1027" lon="2.50343">
        <ele>108.77</ele>
        <time>2014-01-17T07:36:50Z</time>
      </trkpt>
      <trkpt lat="49.10257" lon="2.50336">
        <ele>107.32</ele>
        <time>2014-01-17T07:37:03Z</time>
      </trkpt>
      <trkpt lat="49.10257" lon="2.50336">
        <ele>106.84</ele>
        <time>2014-01-17T07:37:26Z</time>
      </trkpt>
      <trkpt lat="49.10256" lon="2.50335">
        <ele>106.84</ele>
        <time>2014-01-17T07:37:34Z</time>
      </trkpt>
      <trkpt lat="49.10252" lon="2.50331">
        <ele>107.81</ele>
        <time>2014-01-17T07:37:48Z</time>
      </trkpt>
      <trkpt lat="49.10252" lon="2.50329">
        <ele>105.88</ele>
        <time>2014-01-17T07:38:13Z</time>
      </trkpt>
      <trkpt lat="49.1025" lon="2.50327">
        <ele>105.88</ele>
        <time>2014-01-17T07:38:24Z</time>
      </trkpt>
      <trkpt lat="49.10251" lon="2.50327">
        <ele>104.92</ele>
        <time>2014-01-17T07:38:46Z</time>
      </trkpt>
      <trkpt lat="49.10244" lon="2.50325">
        <ele>106.36</ele>
        <time>2014-01-17T07:38:58Z</time>
      </trkpt>
      <trkpt lat="49.10238" lon="2.50318">
        <ele>106.84</ele>
        <time>2014-01-17T07:39:23Z</time>
      </trkpt>
      <trkpt lat="49.10229" lon="2.50305">
        <ele>106.84</ele>
        <time>2014-01-17T07:39:33Z</time>
      </trkpt>
      <trkpt lat="49.10226" lon="2.50303">
        <ele>106.36</ele>
        <time>2014-01-17T07:39:39Z</time>
      </trkpt>
      <trkpt lat="49.10218" lon="2.5029">
        <ele>106.36</ele>
        <time>2014-01-17T07:39:49Z</time>
      </trkpt>
      <trkpt lat="49.10213" lon="2.50286">
        <ele>105.4</ele>
        <time>2014-01-17T07:40:04Z</time>
      </trkpt>
      <trkpt lat="49.10202" lon="2.50273">
        <ele>104.44</ele>
        <time>2014-01-17T07:40:14Z</time>
      </trkpt>
      <trkpt lat="49.10193" lon="2.5026">
        <ele>103</ele>
        <time>2014-01-17T07:40:22Z</time>
      </trkpt>
      <trkpt lat="49.1018" lon="2.50244">
        <ele>101.56</ele>
        <time>2014-01-17T07:40:35Z</time>
      </trkpt>
      <trkpt lat="49.10167" lon="2.50219">
        <ele>102.04</ele>
        <time>2014-01-17T07:40:49Z</time>
      </trkpt>
      <trkpt lat="49.10153" lon="2.50195">
        <ele>100.6</ele>
        <time>2014-01-17T07:41:05Z</time>
      </trkpt>
      <trkpt lat="49.10139" lon="2.50177">
        <ele>101.08</ele>
        <time>2014-01-17T07:41:18Z</time>
      </trkpt>
      <trkpt lat="49.10128" lon="2.50165">
        <ele>100.11</ele>
        <time>2014-01-17T07:41:29Z</time>
      </trkpt>
      <trkpt lat="49.10115" lon="2.50144">
        <ele>100.6</ele>
        <time>2014-01-17T07:41:42Z</time>
      </trkpt>
      <trkpt lat="49.10105" lon="2.50132">
        <ele>100.11</ele>
        <time>2014-01-17T07:41:52Z</time>
      </trkpt>
      <trkpt lat="49.10091" lon="2.50115">
        <ele>101.08</ele>
        <time>2014-01-17T07:42:06Z</time>
      </trkpt>
      <trkpt lat="49.10082" lon="2.50106">
        <ele>99.63</ele>
        <time>2014-01-17T07:42:19Z</time>
      </trkpt>
      <trkpt lat="49.10073" lon="2.50096">
        <ele>98.67</ele>
        <time>2014-01-17T07:42:26Z</time>
      </trkpt>
      <trkpt lat="49.10054" lon="2.50077">
        <ele>98.67</ele>
        <time>2014-01-17T07:42:38Z</time>
      </trkpt>
      <trkpt lat="49.1005" lon="2.50073">
        <ele>99.63</ele>
        <time>2014-01-17T07:42:44Z</time>
      </trkpt>
      <trkpt lat="49.1004" lon="2.50062">
        <ele>98.67</ele>
        <time>2014-01-17T07:42:50Z</time>
      </trkpt>
      <trkpt lat="49.10036" lon="2.5006">
        <ele>97.23</ele>
        <time>2014-01-17T07:42:54Z</time>
      </trkpt>
      <trkpt lat="49.10026" lon="2.50047">
        <ele>95.79</ele>
        <time>2014-01-17T07:43:05Z</time>
      </trkpt>
      <trkpt lat="49.10016" lon="2.50033">
        <ele>96.75</ele>
        <time>2014-01-17T07:43:13Z</time>
      </trkpt>
      <trkpt lat="49.09999" lon="2.50016">
        <ele>96.75</ele>
        <time>2014-01-17T07:43:26Z</time>
      </trkpt>
      <trkpt lat="49.0998" lon="2.49996">
        <ele>98.19</ele>
        <time>2014-01-17T07:43:41Z</time>
      </trkpt>
      <trkpt lat="49.09969" lon="2.49982">
        <ele>98.67</ele>
        <time>2014-01-17T07:43:53Z</time>
      </trkpt>
      <trkpt lat="49.09957" lon="2.49968">
        <ele>95.79</ele>
        <time>2014-01-17T07:44:06Z</time>
      </trkpt>
      <trkpt lat="49.09946" lon="2.49957">
        <ele>92.42</ele>
        <time>2014-01-17T07:44:19Z</time>
      </trkpt>
      <trkpt lat="49.09934" lon="2.49944">
        <ele>89.54</ele>
        <time>2014-01-17T07:44:30Z</time>
      </trkpt>
      <trkpt lat="49.09921" lon="2.49928">
        <ele>87.62</ele>
        <time>2014-01-17T07:44:42Z</time>
      </trkpt>
      <trkpt lat="49.09917" lon="2.49924">
        <ele>87.14</ele>
        <time>2014-01-17T07:44:47Z</time>
      </trkpt>
      <trkpt lat="49.09913" lon="2.49921">
        <ele>87.62</ele>
        <time>2014-01-17T07:44:50Z</time>
      </trkpt>
      <trkpt lat="49.099" lon="2.49908">
        <ele>85.69</ele>
        <time>2014-01-17T07:45:04Z</time>
      </trkpt>
      <trkpt lat="49.09879" lon="2.4988">
        <ele>91.94</ele>
        <time>2014-01-17T07:45:18Z</time>
      </trkpt>
      <trkpt lat="49.09864" lon="2.49858">
        <ele>93.87</ele>
        <time>2014-01-17T07:45:30Z</time>
      </trkpt>
      <trkpt lat="49.09852" lon="2.49848">
        <ele>94.35</ele>
        <time>2014-01-17T07:45:41Z</time>
      </trkpt>
      <trkpt lat="49.09842" lon="2.49835">
        <ele>92.9</ele>
        <time>2014-01-17T07:45:48Z</time>
      </trkpt>
      <trkpt lat="49.09832" lon="2.4982">
        <ele>91.46</ele>
        <time>2014-01-17T07:46:00Z</time>
      </trkpt>
      <trkpt lat="49.0982" lon="2.49802">
        <ele>90.98</ele>
        <time>2014-01-17T07:46:12Z</time>
      </trkpt>
      <trkpt lat="49.09812" lon="2.4978">
        <ele>91.46</ele>
        <time>2014-01-17T07:46:24Z</time>
      </trkpt>
      <trkpt lat="49.09804" lon="2.49759">
        <ele>91.94</ele>
        <time>2014-01-17T07:46:36Z</time>
      </trkpt>
      <trkpt lat="49.09796" lon="2.49739">
        <ele>89.54</ele>
        <time>2014-01-17T07:46:47Z</time>
      </trkpt>
      <trkpt lat="49.09792" lon="2.49727">
        <ele>89.54</ele>
        <time>2014-01-17T07:46:54Z</time>
      </trkpt>
      <trkpt lat="49.09783" lon="2.49709">
        <ele>89.06</ele>
        <time>2014-01-17T07:47:08Z</time>
      </trkpt>
      <trkpt lat="49.0977" lon="2.49684">
        <ele>89.06</ele>
        <time>2014-01-17T07:47:23Z</time>
      </trkpt>
      <trkpt lat="49.09759" lon="2.49658">
        <ele>88.58</ele>
        <time>2014-01-17T07:47:37Z</time>
      </trkpt>
      <trkpt lat="49.09747" lon="2.4964">
        <ele>87.62</ele>
        <time>2014-01-17T07:47:53Z</time>
      </trkpt>
      <trkpt lat="49.09747" lon="2.49639">
        <ele>87.62</ele>
        <time>2014-01-17T07:47:55Z</time>
      </trkpt>
      <trkpt lat="49.09743" lon="2.49616">
        <ele>87.62</ele>
        <time>2014-01-17T07:48:04Z</time>
      </trkpt>
      <trkpt lat="49.09741" lon="2.49607">
        <ele>87.14</ele>
        <time>2014-01-17T07:48:08Z</time>
      </trkpt>
      <trkpt lat="49.09738" lon="2.49595">
        <ele>86.18</ele>
        <time>2014-01-17T07:48:14Z</time>
      </trkpt>
      <trkpt lat="49.09733" lon="2.49587">
        <ele>85.69</ele>
        <time>2014-01-17T07:48:19Z</time>
      </trkpt>
      <trkpt lat="49.09721" lon="2.49565">
        <ele>87.14</ele>
        <time>2014-01-17T07:48:32Z</time>
      </trkpt>
      <trkpt lat="49.09706" lon="2.4954">
        <ele>86.18</ele>
        <time>2014-01-17T07:48:49Z</time>
      </trkpt>
      <trkpt lat="49.09705" lon="2.49539">
        <ele>86.18</ele>
        <time>2014-01-17T07:49:07Z</time>
      </trkpt>
      <trkpt lat="49.09703" lon="2.49535">
        <ele>85.69</ele>
        <time>2014-01-17T07:49:11Z</time>
      </trkpt>
      <trkpt lat="49.0969" lon="2.4952">
        <ele>84.25</ele>
        <time>2014-01-17T07:49:21Z</time>
      </trkpt>
      <trkpt lat="49.09676" lon="2.49503">
        <ele>82.81</ele>
        <time>2014-01-17T07:49:34Z</time>
      </trkpt>
      <trkpt lat="49.09675" lon="2.49501">
        <ele>82.81</ele>
        <time>2014-01-17T07:49:35Z</time>
      </trkpt>
      <trkpt lat="49.09649" lon="2.49478">
        <ele>81.85</ele>
        <time>2014-01-17T07:49:57Z</time>
      </trkpt>
      <trkpt lat="49.09637" lon="2.4946">
        <ele>81.37</ele>
        <time>2014-01-17T07:50:09Z</time>
      </trkpt>
      <trkpt lat="49.09628" lon="2.49439">
        <ele>81.37</ele>
        <time>2014-01-17T07:50:21Z</time>
      </trkpt>
      <trkpt lat="49.09617" lon="2.49414">
        <ele>81.37</ele>
        <time>2014-01-17T07:50:35Z</time>
      </trkpt>
      <trkpt lat="49.09604" lon="2.49387">
        <ele>79.45</ele>
        <time>2014-01-17T07:50:51Z</time>
      </trkpt>
      <trkpt lat="49.0959" lon="2.49358">
        <ele>78</ele>
        <time>2014-01-17T07:51:07Z</time>
      </trkpt>
      <trkpt lat="49.09578" lon="2.49337">
        <ele>77.52</ele>
        <time>2014-01-17T07:51:20Z</time>
      </trkpt>
      <trkpt lat="49.09576" lon="2.49327">
        <ele>77.52</ele>
        <time>2014-01-17T07:51:24Z</time>
      </trkpt>
      <trkpt lat="49.09576" lon="2.49319">
        <ele>77.04</ele>
        <time>2014-01-17T07:51:28Z</time>
      </trkpt>
      <trkpt lat="49.09578" lon="2.49308">
        <ele>75.6</ele>
        <time>2014-01-17T07:51:33Z</time>
      </trkpt>
      <trkpt lat="49.0958" lon="2.49299">
        <ele>74.64</ele>
        <time>2014-01-17T07:51:37Z</time>
      </trkpt>
      <trkpt lat="49.09583" lon="2.49267">
        <ele>72.24</ele>
        <time>2014-01-17T07:51:52Z</time>
      </trkpt>
      <trkpt lat="49.09586" lon="2.49241">
        <ele>72.24</ele>
        <time>2014-01-17T07:52:04Z</time>
      </trkpt>
      <trkpt lat="49.09591" lon="2.49211">
        <ele>72.24</ele>
        <time>2014-01-17T07:52:18Z</time>
      </trkpt>
      <trkpt lat="49.09592" lon="2.49207">
        <ele>72.24</ele>
        <time>2014-01-17T07:52:20Z</time>
      </trkpt>
      <trkpt lat="49.09598" lon="2.4916">
        <ele>72.24</ele>
        <time>2014-01-17T07:52:40Z</time>
      </trkpt>
      <trkpt lat="49.096" lon="2.49135">
        <ele>73.68</ele>
        <time>2014-01-17T07:52:52Z</time>
      </trkpt>
      <trkpt lat="49.09599" lon="2.49095">
        <ele>74.64</ele>
        <time>2014-01-17T07:53:11Z</time>
      </trkpt>
      <trkpt lat="49.09587" lon="2.4906">
        <ele>73.68</ele>
        <time>2014-01-17T07:53:28Z</time>
      </trkpt>
      <trkpt lat="49.09577" lon="2.49037">
        <ele>71.27</ele>
        <time>2014-01-17T07:53:41Z</time>
      </trkpt>
      <trkpt lat="49.09561" lon="2.49005">
        <ele>67.91</ele>
        <time>2014-01-17T07:53:59Z</time>
      </trkpt>
      <trkpt lat="49.09545" lon="2.48969">
        <ele>67.43</ele>
        <time>2014-01-17T07:54:18Z</time>
      </trkpt>
      <trkpt lat="49.09538" lon="2.48942">
        <ele>68.87</ele>
        <time>2014-01-17T07:54:36Z</time>
      </trkpt>
      <trkpt lat="49.09534" lon="2.48921">
        <ele>67.43</ele>
        <time>2014-01-17T07:54:56Z</time>
      </trkpt>
      <trkpt lat="49.09534" lon="2.48901">
        <ele>68.87</ele>
        <time>2014-01-17T07:55:22Z</time>
      </trkpt>
      <trkpt lat="49.0953" lon="2.4887">
        <ele>71.27</ele>
        <time>2014-01-17T07:55:39Z</time>
      </trkpt>
      <trkpt lat="49.09529" lon="2.48836">
        <ele>70.31</ele>
        <time>2014-01-17T07:55:59Z</time>
      </trkpt>
      <trkpt lat="49.09528" lon="2.48824">
        <ele>68.39</ele>
        <time>2014-01-17T07:56:16Z</time>
      </trkpt>
      <trkpt lat="49.0953" lon="2.48803">
        <ele>73.2</ele>
        <time>2014-01-17T07:56:30Z</time>
      </trkpt>
      <trkpt lat="49.09529" lon="2.48793">
        <ele>71.76</ele>
        <time>2014-01-17T07:56:36Z</time>
      </trkpt>
      <trkpt lat="49.09526" lon="2.48772">
        <ele>72.24</ele>
        <time>2014-01-17T07:56:46Z</time>
      </trkpt>
      <trkpt lat="49.09521" lon="2.48765">
        <ele>72.72</ele>
        <time>2014-01-17T07:56:52Z</time>
      </trkpt>
      <trkpt lat="49.095" lon="2.48761">
        <ele>71.76</ele>
        <time>2014-01-17T07:57:06Z</time>
      </trkpt>
      <trkpt lat="49.09483" lon="2.48762">
        <ele>75.12</ele>
        <time>2014-01-17T07:57:18Z</time>
      </trkpt>
      <trkpt lat="49.0946" lon="2.48763">
        <ele>75.6</ele>
        <time>2014-01-17T07:57:34Z</time>
      </trkpt>
      <trkpt lat="49.09439" lon="2.48765">
        <ele>74.16</ele>
        <time>2014-01-17T07:57:48Z</time>
      </trkpt>
      <trkpt lat="49.09436" lon="2.48766">
        <ele>74.16</ele>
        <time>2014-01-17T07:57:51Z</time>
      </trkpt>
      <trkpt lat="49.09429" lon="2.48771">
        <ele>73.68</ele>
        <time>2014-01-17T07:57:57Z</time>
      </trkpt>
      <trkpt lat="49.09407" lon="2.48782">
        <ele>73.2</ele>
        <time>2014-01-17T07:58:12Z</time>
      </trkpt>
      <trkpt lat="49.09391" lon="2.48795">
        <ele>74.16</ele>
        <time>2014-01-17T07:58:25Z</time>
      </trkpt>
      <trkpt lat="49.09379" lon="2.4881">
        <ele>73.68</ele>
        <time>2014-01-17T07:58:37Z</time>
      </trkpt>
      <trkpt lat="49.09368" lon="2.48833">
        <ele>75.12</ele>
        <time>2014-01-17T07:58:51Z</time>
      </trkpt>
      <trkpt lat="49.09362" lon="2.48865">
        <ele>74.64</ele>
        <time>2014-01-17T07:59:07Z</time>
      </trkpt>
      <trkpt lat="49.09361" lon="2.48893">
        <ele>74.64</ele>
        <time>2014-01-17T07:59:20Z</time>
      </trkpt>
      <trkpt lat="49.09358" lon="2.48921">
        <ele>72.72</ele>
        <time>2014-01-17T07:59:33Z</time>
      </trkpt>
      <trkpt lat="49.09357" lon="2.48926">
        <ele>71.76</ele>
        <time>2014-01-17T07:59:37Z</time>
      </trkpt>
      <trkpt lat="49.09356" lon="2.48931">
        <ele>71.27</ele>
        <time>2014-01-17T07:59:40Z</time>
      </trkpt>
      <trkpt lat="49.09353" lon="2.48954">
        <ele>71.27</ele>
        <time>2014-01-17T07:59:51Z</time>
      </trkpt>
      <trkpt lat="49.09349" lon="2.48966">
        <ele>70.79</ele>
        <time>2014-01-17T07:59:58Z</time>
      </trkpt>
      <trkpt lat="49.09346" lon="2.48979">
        <ele>71.27</ele>
        <time>2014-01-17T08:00:03Z</time>
      </trkpt>
      <trkpt lat="49.0934" lon="2.49006">
        <ele>74.16</ele>
        <time>2014-01-17T08:00:18Z</time>
      </trkpt>
      <trkpt lat="49.09336" lon="2.49016">
        <ele>74.16</ele>
        <time>2014-01-17T08:00:24Z</time>
      </trkpt>
      <trkpt lat="49.09333" lon="2.49027">
        <ele>75.6</ele>
        <time>2014-01-17T08:00:29Z</time>
      </trkpt>
      <trkpt lat="49.0933" lon="2.49037">
        <ele>76.56</ele>
        <time>2014-01-17T08:00:43Z</time>
      </trkpt>
      <trkpt lat="49.09331" lon="2.49037">
        <ele>77.52</ele>
        <time>2014-01-17T08:00:55Z</time>
      </trkpt>
      <trkpt lat="49.09333" lon="2.4902">
        <ele>77.04</ele>
        <time>2014-01-17T08:01:05Z</time>
      </trkpt>
      <trkpt lat="49.09337" lon="2.49005">
        <ele>76.56</ele>
        <time>2014-01-17T08:01:13Z</time>
      </trkpt>
      <trkpt lat="49.09326" lon="2.49039">
        <ele>76.56</ele>
        <time>2014-01-17T08:03:42Z</time>
      </trkpt>
      <trkpt lat="49.09325" lon="2.49042">
        <ele>76.56</ele>
        <time>2014-01-17T08:03:44Z</time>
      </trkpt>
      <trkpt lat="49.0932" lon="2.49061">
        <ele>76.56</ele>
        <time>2014-01-17T08:03:53Z</time>
      </trkpt>
      <trkpt lat="49.09317" lon="2.49069">
        <ele>78</ele>
        <time>2014-01-17T08:03:58Z</time>
      </trkpt>
      <trkpt lat="49.09303" lon="2.49095">
        <ele>76.56</ele>
        <time>2014-01-17T08:04:13Z</time>
      </trkpt>
      <trkpt lat="49.09301" lon="2.49098">
        <ele>76.08</ele>
        <time>2014-01-17T08:04:15Z</time>
      </trkpt>
      <trkpt lat="49.09286" lon="2.49126">
        <ele>77.52</ele>
        <time>2014-01-17T08:04:31Z</time>
      </trkpt>
      <trkpt lat="49.09283" lon="2.49137">
        <ele>78.48</ele>
        <time>2014-01-17T08:04:38Z</time>
      </trkpt>
      <trkpt lat="49.0928" lon="2.4915">
        <ele>81.37</ele>
        <time>2014-01-17T08:04:54Z</time>
      </trkpt>
      <trkpt lat="49.09279" lon="2.49153">
        <ele>82.33</ele>
        <time>2014-01-17T08:05:03Z</time>
      </trkpt>
      <trkpt lat="49.09266" lon="2.49189">
        <ele>84.73</ele>
        <time>2014-01-17T08:05:20Z</time>
      </trkpt>
      <trkpt lat="49.09256" lon="2.49213">
        <ele>86.18</ele>
        <time>2014-01-17T08:05:35Z</time>
      </trkpt>
      <trkpt lat="49.0924" lon="2.49241">
        <ele>88.1</ele>
        <time>2014-01-17T08:05:57Z</time>
      </trkpt>
      <trkpt lat="49.09223" lon="2.49261">
        <ele>91.46</ele>
        <time>2014-01-17T08:06:20Z</time>
      </trkpt>
      <trkpt lat="49.09217" lon="2.49264">
        <ele>91.46</ele>
        <time>2014-01-17T08:06:28Z</time>
      </trkpt>
      <trkpt lat="49.09195" lon="2.49283">
        <ele>97.23</ele>
        <time>2014-01-17T08:06:44Z</time>
      </trkpt>
      <trkpt lat="49.09189" lon="2.49289">
        <ele>99.15</ele>
        <time>2014-01-17T08:06:51Z</time>
      </trkpt>
      <trkpt lat="49.09171" lon="2.49311">
        <ele>105.4</ele>
        <time>2014-01-17T08:07:09Z</time>
      </trkpt>
      <trkpt lat="49.09158" lon="2.49332">
        <ele>105.88</ele>
        <time>2014-01-17T08:07:24Z</time>
      </trkpt>
      <trkpt lat="49.09143" lon="2.49357">
        <ele>107.81</ele>
        <time>2014-01-17T08:07:40Z</time>
      </trkpt>
      <trkpt lat="49.09129" lon="2.49382">
        <ele>106.36</ele>
        <time>2014-01-17T08:07:56Z</time>
      </trkpt>
      <trkpt lat="49.09114" lon="2.49401">
        <ele>104.92</ele>
        <time>2014-01-17T08:08:11Z</time>
      </trkpt>
      <trkpt lat="49.0911" lon="2.49408">
        <ele>105.4</ele>
        <time>2014-01-17T08:08:16Z</time>
      </trkpt>
      <trkpt lat="49.09103" lon="2.49417">
        <ele>106.84</ele>
        <time>2014-01-17T08:08:22Z</time>
      </trkpt>
      <trkpt lat="49.09088" lon="2.49439">
        <ele>109.73</ele>
        <time>2014-01-17T08:08:40Z</time>
      </trkpt>
      <trkpt lat="49.09076" lon="2.49452">
        <ele>108.77</ele>
        <time>2014-01-17T08:08:53Z</time>
      </trkpt>
      <trkpt lat="49.09061" lon="2.49476">
        <ele>107.32</ele>
        <time>2014-01-17T08:09:09Z</time>
      </trkpt>
      <trkpt lat="49.09056" lon="2.49485">
        <ele>107.32</ele>
        <time>2014-01-17T08:09:14Z</time>
      </trkpt>
      <trkpt lat="49.09044" lon="2.49515">
        <ele>108.29</ele>
        <time>2014-01-17T08:09:31Z</time>
      </trkpt>
      <trkpt lat="49.09042" lon="2.49518">
        <ele>107.81</ele>
        <time>2014-01-17T08:09:33Z</time>
      </trkpt>
      <trkpt lat="49.09027" lon="2.49546">
        <ele>107.32</ele>
        <time>2014-01-17T08:09:51Z</time>
      </trkpt>
      <trkpt lat="49.09012" lon="2.49575">
        <ele>108.77</ele>
        <time>2014-01-17T08:10:09Z</time>
      </trkpt>
      <trkpt lat="49.08995" lon="2.49602">
        <ele>113.57</ele>
        <time>2014-01-17T08:10:29Z</time>
      </trkpt>
      <trkpt lat="49.08975" lon="2.49628">
        <ele>116.46</ele>
        <time>2014-01-17T08:10:48Z</time>
      </trkpt>
      <trkpt lat="49.08956" lon="2.49649">
        <ele>118.38</ele>
        <time>2014-01-17T08:11:04Z</time>
      </trkpt>
      <trkpt lat="49.08932" lon="2.49668">
        <ele>120.3</ele>
        <time>2014-01-17T08:11:24Z</time>
      </trkpt>
      <trkpt lat="49.08915" lon="2.49681">
        <ele>116.46</ele>
        <time>2014-01-17T08:11:38Z</time>
      </trkpt>
      <trkpt lat="49.08905" lon="2.4971">
        <ele>116.46</ele>
        <time>2014-01-17T08:11:52Z</time>
      </trkpt>
      <trkpt lat="49.08904" lon="2.49724">
        <ele>116.46</ele>
        <time>2014-01-17T08:12:02Z</time>
      </trkpt>
      <trkpt lat="49.08892" lon="2.49724">
        <ele>115.5</ele>
        <time>2014-01-17T08:12:11Z</time>
      </trkpt>
      <trkpt lat="49.08876" lon="2.49731">
        <ele>113.09</ele>
        <time>2014-01-17T08:12:24Z</time>
      </trkpt>
      <trkpt lat="49.08869" lon="2.49733">
        <ele>111.65</ele>
        <time>2014-01-17T08:12:41Z</time>
      </trkpt>
      <trkpt lat="49.08845" lon="2.49753">
        <ele>111.17</ele>
        <time>2014-01-17T08:13:02Z</time>
      </trkpt>
      <trkpt lat="49.08842" lon="2.49754">
        <ele>111.17</ele>
        <time>2014-01-17T08:13:11Z</time>
      </trkpt>
      <trkpt lat="49.0884" lon="2.49756">
        <ele>111.17</ele>
        <time>2014-01-17T08:13:13Z</time>
      </trkpt>
      <trkpt lat="49.08817" lon="2.49772">
        <ele>114.05</ele>
        <time>2014-01-17T08:13:31Z</time>
      </trkpt>
      <trkpt lat="49.08812" lon="2.49777">
        <ele>113.57</ele>
        <time>2014-01-17T08:13:35Z</time>
      </trkpt>
      <trkpt lat="49.08789" lon="2.4979">
        <ele>113.09</ele>
        <time>2014-01-17T08:13:53Z</time>
      </trkpt>
      <trkpt lat="49.08759" lon="2.49806">
        <ele>114.05</ele>
        <time>2014-01-17T08:14:15Z</time>
      </trkpt>
      <trkpt lat="49.08755" lon="2.49808">
        <ele>114.05</ele>
        <time>2014-01-17T08:14:19Z</time>
      </trkpt>
      <trkpt lat="49.0873" lon="2.4982">
        <ele>113.57</ele>
        <time>2014-01-17T08:14:38Z</time>
      </trkpt>
      <trkpt lat="49.0871" lon="2.49828">
        <ele>114.05</ele>
        <time>2014-01-17T08:14:52Z</time>
      </trkpt>
      <trkpt lat="49.08707" lon="2.4983">
        <ele>114.05</ele>
        <time>2014-01-17T08:14:55Z</time>
      </trkpt>
      <trkpt lat="49.08693" lon="2.49839">
        <ele>115.01</ele>
        <time>2014-01-17T08:15:06Z</time>
      </trkpt>
      <trkpt lat="49.0867" lon="2.49849">
        <ele>115.98</ele>
        <time>2014-01-17T08:15:22Z</time>
      </trkpt>
      <trkpt lat="49.08655" lon="2.49859">
        <ele>117.9</ele>
        <time>2014-01-17T08:15:38Z</time>
      </trkpt>
      <trkpt lat="49.08655" lon="2.49859">
        <ele>117.9</ele>
        <time>2014-01-17T08:15:42Z</time>
      </trkpt>
      <trkpt lat="49.08653" lon="2.49861">
        <ele>117.9</ele>
        <time>2014-01-17T08:15:44Z</time>
      </trkpt>
      <trkpt lat="49.08649" lon="2.49863">
        <ele>118.38</ele>
        <time>2014-01-17T08:15:48Z</time>
      </trkpt>
      <trkpt lat="49.08646" lon="2.49867">
        <ele>118.38</ele>
        <time>2014-01-17T08:15:51Z</time>
      </trkpt>
      <trkpt lat="49.08639" lon="2.49872">
        <ele>119.82</ele>
        <time>2014-01-17T08:16:05Z</time>
      </trkpt>
      <trkpt lat="49.08639" lon="2.49869">
        <ele>119.82</ele>
        <time>2014-01-17T08:16:29Z</time>
      </trkpt>
      <trkpt lat="49.08635" lon="2.49878">
        <ele>117.42</ele>
        <time>2014-01-17T08:16:40Z</time>
      </trkpt>
      <trkpt lat="49.0863" lon="2.49883">
        <ele>116.46</ele>
        <time>2014-01-17T08:16:43Z</time>
      </trkpt>
      <trkpt lat="49.08611" lon="2.49909">
        <ele>114.05</ele>
        <time>2014-01-17T08:17:00Z</time>
      </trkpt>
      <trkpt lat="49.08592" lon="2.49934">
        <ele>116.94</ele>
        <time>2014-01-17T08:17:18Z</time>
      </trkpt>
      <trkpt lat="49.08573" lon="2.49959">
        <ele>120.78</ele>
        <time>2014-01-17T08:17:35Z</time>
      </trkpt>
      <trkpt lat="49.0856" lon="2.49973">
        <ele>122.22</ele>
        <time>2014-01-17T08:17:47Z</time>
      </trkpt>
      <trkpt lat="49.08541" lon="2.49995">
        <ele>126.07</ele>
        <time>2014-01-17T08:18:03Z</time>
      </trkpt>
      <trkpt lat="49.08525" lon="2.50015">
        <ele>128.95</ele>
        <time>2014-01-17T08:18:18Z</time>
      </trkpt>
      <trkpt lat="49.08507" lon="2.50029">
        <ele>130.4</ele>
        <time>2014-01-17T08:18:33Z</time>
      </trkpt>
      <trkpt lat="49.08502" lon="2.50029">
        <ele>130.88</ele>
        <time>2014-01-17T08:18:37Z</time>
      </trkpt>
      <trkpt lat="49.08495" lon="2.50026">
        <ele>130.88</ele>
        <time>2014-01-17T08:18:41Z</time>
      </trkpt>
      <trkpt lat="49.08493" lon="2.50025">
        <ele>130.88</ele>
        <time>2014-01-17T08:18:43Z</time>
      </trkpt>
      <trkpt lat="49.08473" lon="2.50024">
        <ele>131.84</ele>
        <time>2014-01-17T08:18:59Z</time>
      </trkpt>
      <trkpt lat="49.08465" lon="2.50022">
        <ele>132.32</ele>
        <time>2014-01-17T08:19:06Z</time>
      </trkpt>
      <trkpt lat="49.08444" lon="2.50015">
        <ele>130.88</ele>
        <time>2014-01-17T08:19:21Z</time>
      </trkpt>
      <trkpt lat="49.08442" lon="2.50015">
        <ele>130.88</ele>
        <time>2014-01-17T08:19:23Z</time>
      </trkpt>
      <trkpt lat="49.08423" lon="2.5001">
        <ele>132.32</ele>
        <time>2014-01-17T08:19:36Z</time>
      </trkpt>
      <trkpt lat="49.08405" lon="2.49999">
        <ele>132.8</ele>
        <time>2014-01-17T08:19:50Z</time>
      </trkpt>
      <trkpt lat="49.08388" lon="2.49986">
        <ele>132.8</ele>
        <time>2014-01-17T08:20:04Z</time>
      </trkpt>
      <trkpt lat="49.08386" lon="2.49985">
        <ele>132.8</ele>
        <time>2014-01-17T08:20:06Z</time>
      </trkpt>
      <trkpt lat="49.08381" lon="2.4998">
        <ele>133.28</ele>
        <time>2014-01-17T08:20:10Z</time>
      </trkpt>
      <trkpt lat="49.08368" lon="2.4997">
        <ele>133.76</ele>
        <time>2014-01-17T08:20:20Z</time>
      </trkpt>
      <trkpt lat="49.08364" lon="2.49965">
        <ele>134.72</ele>
        <time>2014-01-17T08:20:24Z</time>
      </trkpt>
      <trkpt lat="49.08342" lon="2.4995">
        <ele>135.68</ele>
        <time>2014-01-17T08:20:41Z</time>
      </trkpt>
      <trkpt lat="49.08321" lon="2.49931">
        <ele>135.2</ele>
        <time>2014-01-17T08:20:58Z</time>
      </trkpt>
      <trkpt lat="49.08302" lon="2.49916">
        <ele>134.72</ele>
        <time>2014-01-17T08:21:13Z</time>
      </trkpt>
      <trkpt lat="49.0829" lon="2.49906">
        <ele>133.76</ele>
        <time>2014-01-17T08:21:24Z</time>
      </trkpt>
      <trkpt lat="49.08273" lon="2.49888">
        <ele>132.8</ele>
        <time>2014-01-17T08:21:38Z</time>
      </trkpt>
      <trkpt lat="49.08254" lon="2.49869">
        <ele>132.8</ele>
        <time>2014-01-17T08:21:54Z</time>
      </trkpt>
      <trkpt lat="49.08237" lon="2.49851">
        <ele>134.72</ele>
        <time>2014-01-17T08:22:09Z</time>
      </trkpt>
      <trkpt lat="49.08217" lon="2.49842">
        <ele>136.64</ele>
        <time>2014-01-17T08:22:24Z</time>
      </trkpt>
      <trkpt lat="49.08197" lon="2.49839">
        <ele>137.61</ele>
        <time>2014-01-17T08:22:38Z</time>
      </trkpt>
      <trkpt lat="49.08176" lon="2.49845">
        <ele>135.68</ele>
        <time>2014-01-17T08:22:54Z</time>
      </trkpt>
      <trkpt lat="49.08175" lon="2.49846">
        <ele>135.68</ele>
        <time>2014-01-17T08:22:55Z</time>
      </trkpt>
      <trkpt lat="49.08168" lon="2.49849">
        <ele>135.2</ele>
        <time>2014-01-17T08:23:00Z</time>
      </trkpt>
      <trkpt lat="49.0815" lon="2.49862">
        <ele>135.68</ele>
        <time>2014-01-17T08:23:13Z</time>
      </trkpt>
      <trkpt lat="49.08139" lon="2.49869">
        <ele>133.76</ele>
        <time>2014-01-17T08:23:22Z</time>
      </trkpt>
      <trkpt lat="49.08118" lon="2.49878">
        <ele>132.32</ele>
        <time>2014-01-17T08:23:37Z</time>
      </trkpt>
      <trkpt lat="49.08101" lon="2.49892">
        <ele>135.2</ele>
        <time>2014-01-17T08:23:50Z</time>
      </trkpt>
      <trkpt lat="49.08093" lon="2.49896">
        <ele>135.68</ele>
        <time>2014-01-17T08:23:55Z</time>
      </trkpt>
      <trkpt lat="49.08087" lon="2.49898">
        <ele>135.2</ele>
        <time>2014-01-17T08:24:00Z</time>
      </trkpt>
      <trkpt lat="49.08081" lon="2.49901">
        <ele>135.2</ele>
        <time>2014-01-17T08:24:05Z</time>
      </trkpt>
      <trkpt lat="49.08062" lon="2.49908">
        <ele>139.05</ele>
        <time>2014-01-17T08:24:18Z</time>
      </trkpt>
      <trkpt lat="49.08045" lon="2.49912">
        <ele>140.97</ele>
        <time>2014-01-17T08:24:31Z</time>
      </trkpt>
      <trkpt lat="49.08026" lon="2.49914">
        <ele>141.45</ele>
        <time>2014-01-17T08:24:44Z</time>
      </trkpt>
      <trkpt lat="49.08025" lon="2.49914">
        <ele>141.45</ele>
        <time>2014-01-17T08:24:45Z</time>
      </trkpt>
      <trkpt lat="49.08002" lon="2.49914">
        <ele>140.97</ele>
        <time>2014-01-17T08:24:59Z</time>
      </trkpt>
      <trkpt lat="49.07997" lon="2.49914">
        <ele>140.97</ele>
        <time>2014-01-17T08:25:03Z</time>
      </trkpt>
      <trkpt lat="49.07995" lon="2.49916">
        <ele>140.97</ele>
        <time>2014-01-17T08:25:05Z</time>
      </trkpt>
      <trkpt lat="49.07979" lon="2.49918">
        <ele>141.45</ele>
        <time>2014-01-17T08:25:17Z</time>
      </trkpt>
      <trkpt lat="49.07972" lon="2.49921">
        <ele>142.41</ele>
        <time>2014-01-17T08:25:23Z</time>
      </trkpt>
      <trkpt lat="49.07958" lon="2.49921">
        <ele>142.41</ele>
        <time>2014-01-17T08:25:35Z</time>
      </trkpt>
      <trkpt lat="49.07939" lon="2.49921">
        <ele>143.85</ele>
        <time>2014-01-17T08:25:50Z</time>
      </trkpt>
      <trkpt lat="49.07918" lon="2.4992">
        <ele>145.78</ele>
        <time>2014-01-17T08:26:06Z</time>
      </trkpt>
      <trkpt lat="49.07904" lon="2.49917">
        <ele>145.78</ele>
        <time>2014-01-17T08:26:24Z</time>
      </trkpt>
      <trkpt lat="49.07899" lon="2.49914">
        <ele>145.3</ele>
        <time>2014-01-17T08:26:31Z</time>
      </trkpt>
      <trkpt lat="49.07889" lon="2.4992">
        <ele>143.85</ele>
        <time>2014-01-17T08:26:55Z</time>
      </trkpt>
      <trkpt lat="49.07888" lon="2.49922">
        <ele>143.37</ele>
        <time>2014-01-17T08:26:56Z</time>
      </trkpt>
      <trkpt lat="49.07876" lon="2.4993">
        <ele>145.3</ele>
        <time>2014-01-17T08:27:12Z</time>
      </trkpt>
      <trkpt lat="49.07865" lon="2.49921">
        <ele>149.62</ele>
        <time>2014-01-17T08:27:29Z</time>
      </trkpt>
      <trkpt lat="49.0787" lon="2.49902">
        <ele>144.82</ele>
        <time>2014-01-17T08:27:39Z</time>
      </trkpt>
      <trkpt lat="49.07876" lon="2.49852">
        <ele>138.09</ele>
        <time>2014-01-17T08:28:00Z</time>
      </trkpt>
      <trkpt lat="49.07879" lon="2.4981">
        <ele>137.13</ele>
        <time>2014-01-17T08:28:20Z</time>
      </trkpt>
      <trkpt lat="49.07882" lon="2.4976">
        <ele>139.05</ele>
        <time>2014-01-17T08:28:43Z</time>
      </trkpt>
      <trkpt lat="49.07885" lon="2.49725">
        <ele>137.61</ele>
        <time>2014-01-17T08:29:00Z</time>
      </trkpt>
      <trkpt lat="49.07885" lon="2.4971">
        <ele>137.13</ele>
        <time>2014-01-17T08:29:08Z</time>
      </trkpt>
      <trkpt lat="49.07885" lon="2.49704">
        <ele>137.13</ele>
        <time>2014-01-17T08:29:10Z</time>
      </trkpt>
      <trkpt lat="49.07878" lon="2.49689">
        <ele>137.61</ele>
        <time>2014-01-17T08:29:19Z</time>
      </trkpt>
      <trkpt lat="49.07872" lon="2.4968">
        <ele>137.61</ele>
        <time>2014-01-17T08:29:33Z</time>
      </trkpt>
      <trkpt lat="49.07867" lon="2.49668">
        <ele>136.64</ele>
        <time>2014-01-17T08:29:49Z</time>
      </trkpt>
      <trkpt lat="49.07862" lon="2.49659">
        <ele>135.68</ele>
        <time>2014-01-17T08:29:55Z</time>
      </trkpt>
      <trkpt lat="49.0785" lon="2.49636">
        <ele>135.68</ele>
        <time>2014-01-17T08:30:08Z</time>
      </trkpt>
      <trkpt lat="49.07848" lon="2.49627">
        <ele>137.13</ele>
        <time>2014-01-17T08:30:22Z</time>
      </trkpt>
      <trkpt lat="49.07844" lon="2.49621">
        <ele>136.16</ele>
        <time>2014-01-17T08:30:26Z</time>
      </trkpt>
      <trkpt lat="49.07839" lon="2.49608">
        <ele>134.72</ele>
        <time>2014-01-17T08:30:32Z</time>
      </trkpt>
      <trkpt lat="49.07835" lon="2.496">
        <ele>134.72</ele>
        <time>2014-01-17T08:30:36Z</time>
      </trkpt>
      <trkpt lat="49.07829" lon="2.49584">
        <ele>135.2</ele>
        <time>2014-01-17T08:30:44Z</time>
      </trkpt>
      <trkpt lat="49.07825" lon="2.4958">
        <ele>135.2</ele>
        <time>2014-01-17T08:30:48Z</time>
      </trkpt>
      <trkpt lat="49.07821" lon="2.4957">
        <ele>135.2</ele>
        <time>2014-01-17T08:30:52Z</time>
      </trkpt>
      <trkpt lat="49.07817" lon="2.49559">
        <ele>135.2</ele>
        <time>2014-01-17T08:30:59Z</time>
      </trkpt>
      <trkpt lat="49.0781" lon="2.49548">
        <ele>135.2</ele>
        <time>2014-01-17T08:31:05Z</time>
      </trkpt>
      <trkpt lat="49.078" lon="2.49523">
        <ele>135.2</ele>
        <time>2014-01-17T08:31:18Z</time>
      </trkpt>
      <trkpt lat="49.07787" lon="2.49496">
        <ele>134.24</ele>
        <time>2014-01-17T08:31:33Z</time>
      </trkpt>
      <trkpt lat="49.07784" lon="2.49479">
        <ele>134.72</ele>
        <time>2014-01-17T08:31:41Z</time>
      </trkpt>
      <trkpt lat="49.07802" lon="2.4943">
        <ele>135.68</ele>
        <time>2014-01-17T08:32:07Z</time>
      </trkpt>
      <trkpt lat="49.07821" lon="2.49392">
        <ele>134.72</ele>
        <time>2014-01-17T08:32:32Z</time>
      </trkpt>
      <trkpt lat="49.07826" lon="2.49388">
        <ele>133.76</ele>
        <time>2014-01-17T08:32:47Z</time>
      </trkpt>
      <trkpt lat="49.07836" lon="2.49373">
        <ele>132.32</ele>
        <time>2014-01-17T08:32:59Z</time>
      </trkpt>
      <trkpt lat="49.07856" lon="2.49343">
        <ele>132.32</ele>
        <time>2014-01-17T08:33:19Z</time>
      </trkpt>
      <trkpt lat="49.07876" lon="2.49307">
        <ele>133.28</ele>
        <time>2014-01-17T08:33:41Z</time>
      </trkpt>
      <trkpt lat="49.0788" lon="2.493">
        <ele>132.32</ele>
        <time>2014-01-17T08:33:45Z</time>
      </trkpt>
      <trkpt lat="49.07895" lon="2.49276">
        <ele>131.84</ele>
        <time>2014-01-17T08:34:00Z</time>
      </trkpt>
      <trkpt lat="49.07908" lon="2.49256">
        <ele>131.36</ele>
        <time>2014-01-17T08:34:12Z</time>
      </trkpt>
      <trkpt lat="49.07911" lon="2.4925">
        <ele>131.36</ele>
        <time>2014-01-17T08:34:16Z</time>
      </trkpt>
      <trkpt lat="49.07928" lon="2.49224">
        <ele>129.92</ele>
        <time>2014-01-17T08:34:31Z</time>
      </trkpt>
      <trkpt lat="49.07941" lon="2.49204">
        <ele>129.92</ele>
        <time>2014-01-17T08:34:44Z</time>
      </trkpt>
      <trkpt lat="49.07952" lon="2.49191">
        <ele>127.99</ele>
        <time>2014-01-17T08:34:58Z</time>
      </trkpt>
      <trkpt lat="49.07964" lon="2.4917">
        <ele>126.07</ele>
        <time>2014-01-17T08:35:20Z</time>
      </trkpt>
      <trkpt lat="49.07969" lon="2.49165">
        <ele>125.59</ele>
        <time>2014-01-17T08:35:30Z</time>
      </trkpt>
      <trkpt lat="49.07983" lon="2.49139">
        <ele>128.95</ele>
        <time>2014-01-17T08:35:44Z</time>
      </trkpt>
      <trkpt lat="49.07996" lon="2.49118">
        <ele>131.36</ele>
        <time>2014-01-17T08:35:58Z</time>
      </trkpt>
      <trkpt lat="49.08011" lon="2.49096">
        <ele>132.8</ele>
        <time>2014-01-17T08:36:12Z</time>
      </trkpt>
      <trkpt lat="49.08028" lon="2.49071">
        <ele>133.28</ele>
        <time>2014-01-17T08:36:28Z</time>
      </trkpt>
      <trkpt lat="49.08044" lon="2.49047">
        <ele>134.72</ele>
        <time>2014-01-17T08:36:44Z</time>
      </trkpt>
      <trkpt lat="49.08058" lon="2.49025">
        <ele>135.68</ele>
        <time>2014-01-17T08:36:58Z</time>
      </trkpt>
      <trkpt lat="49.08072" lon="2.49002">
        <ele>137.61</ele>
        <time>2014-01-17T08:37:13Z</time>
      </trkpt>
      <trkpt lat="49.08086" lon="2.4898">
        <ele>137.13</ele>
        <time>2014-01-17T08:37:27Z</time>
      </trkpt>
      <trkpt lat="49.08095" lon="2.48966">
        <ele>136.16</ele>
        <time>2014-01-17T08:37:35Z</time>
      </trkpt>
      <trkpt lat="49.08099" lon="2.48959">
        <ele>135.68</ele>
        <time>2014-01-17T08:37:39Z</time>
      </trkpt>
      <trkpt lat="49.08112" lon="2.48939">
        <ele>136.16</ele>
        <time>2014-01-17T08:37:51Z</time>
      </trkpt>
      <trkpt lat="49.08113" lon="2.48937">
        <ele>136.16</ele>
        <time>2014-01-17T08:37:53Z</time>
      </trkpt>
      <trkpt lat="49.08127" lon="2.48914">
        <ele>136.64</ele>
        <time>2014-01-17T08:38:08Z</time>
      </trkpt>
      <trkpt lat="49.08139" lon="2.48892">
        <ele>136.16</ele>
        <time>2014-01-17T08:38:21Z</time>
      </trkpt>
      <trkpt lat="49.08152" lon="2.48871">
        <ele>135.68</ele>
        <time>2014-01-17T08:38:34Z</time>
      </trkpt>
      <trkpt lat="49.08165" lon="2.48848">
        <ele>134.72</ele>
        <time>2014-01-17T08:38:47Z</time>
      </trkpt>
      <trkpt lat="49.08184" lon="2.48817">
        <ele>133.28</ele>
        <time>2014-01-17T08:39:05Z</time>
      </trkpt>
      <trkpt lat="49.08192" lon="2.488">
        <ele>132.8</ele>
        <time>2014-01-17T08:39:15Z</time>
      </trkpt>
      <trkpt lat="49.08195" lon="2.4879">
        <ele>132.8</ele>
        <time>2014-01-17T08:39:20Z</time>
      </trkpt>
      <trkpt lat="49.08203" lon="2.48765">
        <ele>132.8</ele>
        <time>2014-01-17T08:39:32Z</time>
      </trkpt>
      <trkpt lat="49.08208" lon="2.48743">
        <ele>132.32</ele>
        <time>2014-01-17T08:39:44Z</time>
      </trkpt>
      <trkpt lat="49.08208" lon="2.48739">
        <ele>132.8</ele>
        <time>2014-01-17T08:39:59Z</time>
      </trkpt>
      <trkpt lat="49.08212" lon="2.48719">
        <ele>132.32</ele>
        <time>2014-01-17T08:40:13Z</time>
      </trkpt>
      <trkpt lat="49.08213" lon="2.48696">
        <ele>131.36</ele>
        <time>2014-01-17T08:40:31Z</time>
      </trkpt>
      <trkpt lat="49.08218" lon="2.48662">
        <ele>132.32</ele>
        <time>2014-01-17T08:40:49Z</time>
      </trkpt>
      <trkpt lat="49.08221" lon="2.48648">
        <ele>132.8</ele>
        <time>2014-01-17T08:40:55Z</time>
      </trkpt>
      <trkpt lat="49.08224" lon="2.4862">
        <ele>131.84</ele>
        <time>2014-01-17T08:41:09Z</time>
      </trkpt>
      <trkpt lat="49.08227" lon="2.48593">
        <ele>131.84</ele>
        <time>2014-01-17T08:41:22Z</time>
      </trkpt>
      <trkpt lat="49.08229" lon="2.48574">
        <ele>132.8</ele>
        <time>2014-01-17T08:41:31Z</time>
      </trkpt>
      <trkpt lat="49.08232" lon="2.48542">
        <ele>131.84</ele>
        <time>2014-01-17T08:41:47Z</time>
      </trkpt>
      <trkpt lat="49.08235" lon="2.4852">
        <ele>130.88</ele>
        <time>2014-01-17T08:42:01Z</time>
      </trkpt>
      <trkpt lat="49.08236" lon="2.48501">
        <ele>130.4</ele>
        <time>2014-01-17T08:42:15Z</time>
      </trkpt>
      <trkpt lat="49.08242" lon="2.48461">
        <ele>129.92</ele>
        <time>2014-01-17T08:42:35Z</time>
      </trkpt>
      <trkpt lat="49.08242" lon="2.4846">
        <ele>129.92</ele>
        <time>2014-01-17T08:42:41Z</time>
      </trkpt>
      <trkpt lat="49.0825" lon="2.48407">
        <ele>129.92</ele>
        <time>2014-01-17T08:43:06Z</time>
      </trkpt>
      <trkpt lat="49.08259" lon="2.48348">
        <ele>129.92</ele>
        <time>2014-01-17T08:43:35Z</time>
      </trkpt>
      <trkpt lat="49.08268" lon="2.48295">
        <ele>128.95</ele>
        <time>2014-01-17T08:44:02Z</time>
      </trkpt>
      <trkpt lat="49.08272" lon="2.48234">
        <ele>128.95</ele>
        <time>2014-01-17T08:44:27Z</time>
      </trkpt>
      <trkpt lat="49.08277" lon="2.48193">
        <ele>129.92</ele>
        <time>2014-01-17T08:44:49Z</time>
      </trkpt>
      <trkpt lat="49.08278" lon="2.48187">
        <ele>130.4</ele>
        <time>2014-01-17T08:45:04Z</time>
      </trkpt>
      <trkpt lat="49.08282" lon="2.48171">
        <ele>129.92</ele>
        <time>2014-01-17T08:45:19Z</time>
      </trkpt>
      <trkpt lat="49.08295" lon="2.48144">
        <ele>129.92</ele>
        <time>2014-01-17T08:45:33Z</time>
      </trkpt>
      <trkpt lat="49.083" lon="2.48135">
        <ele>129.92</ele>
        <time>2014-01-17T08:45:39Z</time>
      </trkpt>
      <trkpt lat="49.08313" lon="2.48103">
        <ele>130.4</ele>
        <time>2014-01-17T08:45:56Z</time>
      </trkpt>
      <trkpt lat="49.08326" lon="2.48073">
        <ele>130.4</ele>
        <time>2014-01-17T08:46:13Z</time>
      </trkpt>
      <trkpt lat="49.08326" lon="2.48072">
        <ele>130.4</ele>
        <time>2014-01-17T08:46:14Z</time>
      </trkpt>
      <trkpt lat="49.08329" lon="2.48062">
        <ele>129.43</ele>
        <time>2014-01-17T08:46:19Z</time>
      </trkpt>
      <trkpt lat="49.08339" lon="2.48037">
        <ele>128.47</ele>
        <time>2014-01-17T08:46:33Z</time>
      </trkpt>
      <trkpt lat="49.08348" lon="2.48017">
        <ele>128.47</ele>
        <time>2014-01-17T08:46:44Z</time>
      </trkpt>
      <trkpt lat="49.0836" lon="2.47991">
        <ele>126.55</ele>
        <time>2014-01-17T08:46:58Z</time>
      </trkpt>
      <trkpt lat="49.08374" lon="2.47957">
        <ele>125.59</ele>
        <time>2014-01-17T08:47:15Z</time>
      </trkpt>
      <trkpt lat="49.0838" lon="2.47944">
        <ele>127.51</ele>
        <time>2014-01-17T08:47:32Z</time>
      </trkpt>
      <trkpt lat="49.0838" lon="2.47942">
        <ele>127.51</ele>
        <time>2014-01-17T08:47:39Z</time>
      </trkpt>
      <trkpt lat="49.0839" lon="2.4792">
        <ele>125.11</ele>
        <time>2014-01-17T08:47:51Z</time>
      </trkpt>
      <trkpt lat="49.084" lon="2.47889">
        <ele>122.22</ele>
        <time>2014-01-17T08:48:09Z</time>
      </trkpt>
      <trkpt lat="49.08411" lon="2.47866">
        <ele>121.26</ele>
        <time>2014-01-17T08:48:21Z</time>
      </trkpt>
      <trkpt lat="49.08421" lon="2.47835">
        <ele>119.82</ele>
        <time>2014-01-17T08:48:36Z</time>
      </trkpt>
      <trkpt lat="49.0843" lon="2.47812">
        <ele>118.38</ele>
        <time>2014-01-17T08:48:48Z</time>
      </trkpt>
      <trkpt lat="49.08434" lon="2.478">
        <ele>117.42</ele>
        <time>2014-01-17T08:48:53Z</time>
      </trkpt>
      <trkpt lat="49.08445" lon="2.47776">
        <ele>115.98</ele>
        <time>2014-01-17T08:49:06Z</time>
      </trkpt>
      <trkpt lat="49.08452" lon="2.47749">
        <ele>116.46</ele>
        <time>2014-01-17T08:49:20Z</time>
      </trkpt>
      <trkpt lat="49.0846" lon="2.47729">
        <ele>116.46</ele>
        <time>2014-01-17T08:49:31Z</time>
      </trkpt>
      <trkpt lat="49.08464" lon="2.47723">
        <ele>115.98</ele>
        <time>2014-01-17T08:49:34Z</time>
      </trkpt>
      <trkpt lat="49.08468" lon="2.47713">
        <ele>115.01</ele>
        <time>2014-01-17T08:49:40Z</time>
      </trkpt>
      <trkpt lat="49.08472" lon="2.47707">
        <ele>115.01</ele>
        <time>2014-01-17T08:49:43Z</time>
      </trkpt>
      <trkpt lat="49.08474" lon="2.47699">
        <ele>113.57</ele>
        <time>2014-01-17T08:49:47Z</time>
      </trkpt>
      <trkpt lat="49.08489" lon="2.47675">
        <ele>110.69</ele>
        <time>2014-01-17T08:50:02Z</time>
      </trkpt>
      <trkpt lat="49.08498" lon="2.47668">
        <ele>109.73</ele>
        <time>2014-01-17T08:50:08Z</time>
      </trkpt>
      <trkpt lat="49.08502" lon="2.47658">
        <ele>108.77</ele>
        <time>2014-01-17T08:50:14Z</time>
      </trkpt>
      <trkpt lat="49.08519" lon="2.47635">
        <ele>107.32</ele>
        <time>2014-01-17T08:50:29Z</time>
      </trkpt>
      <trkpt lat="49.08521" lon="2.47631">
        <ele>107.32</ele>
        <time>2014-01-17T08:50:32Z</time>
      </trkpt>
      <trkpt lat="49.08522" lon="2.47627">
        <ele>107.32</ele>
        <time>2014-01-17T08:50:34Z</time>
      </trkpt>
      <trkpt lat="49.0853" lon="2.47614">
        <ele>107.81</ele>
        <time>2014-01-17T08:50:43Z</time>
      </trkpt>
      <trkpt lat="49.08543" lon="2.47594">
        <ele>106.36</ele>
        <time>2014-01-17T08:50:56Z</time>
      </trkpt>
      <trkpt lat="49.08555" lon="2.47578">
        <ele>106.36</ele>
        <time>2014-01-17T08:51:08Z</time>
      </trkpt>
      <trkpt lat="49.08567" lon="2.47558">
        <ele>107.81</ele>
        <time>2014-01-17T08:51:21Z</time>
      </trkpt>
      <trkpt lat="49.0857" lon="2.47552">
        <ele>107.81</ele>
        <time>2014-01-17T08:51:26Z</time>
      </trkpt>
      <trkpt lat="49.08573" lon="2.47544">
        <ele>108.29</ele>
        <time>2014-01-17T08:51:30Z</time>
      </trkpt>
      <trkpt lat="49.08587" lon="2.47521">
        <ele>109.73</ele>
        <time>2014-01-17T08:51:45Z</time>
      </trkpt>
      <trkpt lat="49.086" lon="2.47503">
        <ele>109.25</ele>
        <time>2014-01-17T08:51:58Z</time>
      </trkpt>
      <trkpt lat="49.08616" lon="2.47481">
        <ele>108.77</ele>
        <time>2014-01-17T08:52:13Z</time>
      </trkpt>
      <trkpt lat="49.0863" lon="2.47457">
        <ele>107.81</ele>
        <time>2014-01-17T08:52:28Z</time>
      </trkpt>
      <trkpt lat="49.08643" lon="2.47437">
        <ele>107.32</ele>
        <time>2014-01-17T08:52:43Z</time>
      </trkpt>
      <trkpt lat="49.08662" lon="2.47415">
        <ele>106.84</ele>
        <time>2014-01-17T08:52:59Z</time>
      </trkpt>
      <trkpt lat="49.08676" lon="2.47401">
        <ele>107.81</ele>
        <time>2014-01-17T08:53:13Z</time>
      </trkpt>
      <trkpt lat="49.0869" lon="2.47385">
        <ele>109.25</ele>
        <time>2014-01-17T08:53:27Z</time>
      </trkpt>
      <trkpt lat="49.08692" lon="2.47385">
        <ele>109.25</ele>
        <time>2014-01-17T08:53:30Z</time>
      </trkpt>
      <trkpt lat="49.08698" lon="2.47381">
        <ele>109.73</ele>
        <time>2014-01-17T08:53:34Z</time>
      </trkpt>
      <trkpt lat="49.08711" lon="2.47368">
        <ele>111.65</ele>
        <time>2014-01-17T08:53:46Z</time>
      </trkpt>
      <trkpt lat="49.08723" lon="2.47353">
        <ele>111.65</ele>
        <time>2014-01-17T08:53:59Z</time>
      </trkpt>
      <trkpt lat="49.08739" lon="2.47338">
        <ele>112.61</ele>
        <time>2014-01-17T08:54:11Z</time>
      </trkpt>
      <trkpt lat="49.08747" lon="2.47327">
        <ele>111.65</ele>
        <time>2014-01-17T08:54:21Z</time>
      </trkpt>
      <trkpt lat="49.0876" lon="2.4731">
        <ele>108.77</ele>
        <time>2014-01-17T08:54:38Z</time>
      </trkpt>
      <trkpt lat="49.0876" lon="2.4731">
        <ele>108.77</ele>
        <time>2014-01-17T08:54:39Z</time>
      </trkpt>
      <trkpt lat="49.08777" lon="2.47282">
        <ele>103.96</ele>
        <time>2014-01-17T08:54:54Z</time>
      </trkpt>
      <trkpt lat="49.08793" lon="2.47254">
        <ele>97.71</ele>
        <time>2014-01-17T08:55:11Z</time>
      </trkpt>
      <trkpt lat="49.08794" lon="2.47253">
        <ele>97.71</ele>
        <time>2014-01-17T08:55:12Z</time>
      </trkpt>
      <trkpt lat="49.08807" lon="2.47236">
        <ele>94.35</ele>
        <time>2014-01-17T08:55:32Z</time>
      </trkpt>
      <trkpt lat="49.08813" lon="2.47223">
        <ele>93.39</ele>
        <time>2014-01-17T08:55:45Z</time>
      </trkpt>
      <trkpt lat="49.0882" lon="2.47209">
        <ele>93.39</ele>
        <time>2014-01-17T08:55:53Z</time>
      </trkpt>
      <trkpt lat="49.08837" lon="2.47184">
        <ele>94.35</ele>
        <time>2014-01-17T08:56:09Z</time>
      </trkpt>
      <trkpt lat="49.08851" lon="2.4716">
        <ele>95.31</ele>
        <time>2014-01-17T08:56:24Z</time>
      </trkpt>
      <trkpt lat="49.08857" lon="2.47152">
        <ele>96.27</ele>
        <time>2014-01-17T08:56:38Z</time>
      </trkpt>
      <trkpt lat="49.08866" lon="2.47138">
        <ele>97.23</ele>
        <time>2014-01-17T08:56:51Z</time>
      </trkpt>
      <trkpt lat="49.08874" lon="2.47121">
        <ele>96.27</ele>
        <time>2014-01-17T08:57:08Z</time>
      </trkpt>
      <trkpt lat="49.08891" lon="2.47098">
        <ele>96.75</ele>
        <time>2014-01-17T08:57:25Z</time>
      </trkpt>
      <trkpt lat="49.08901" lon="2.47087">
        <ele>92.42</ele>
        <time>2014-01-17T08:57:38Z</time>
      </trkpt>
      <trkpt lat="49.08903" lon="2.47083">
        <ele>90.02</ele>
        <time>2014-01-17T08:57:52Z</time>
      </trkpt>
      <trkpt lat="49.08921" lon="2.47061">
        <ele>87.14</ele>
        <time>2014-01-17T08:58:12Z</time>
      </trkpt>
      <trkpt lat="49.08922" lon="2.4706">
        <ele>88.1</ele>
        <time>2014-01-17T08:58:17Z</time>
      </trkpt>
      <trkpt lat="49.08924" lon="2.47054">
        <ele>90.5</ele>
        <time>2014-01-17T08:58:21Z</time>
      </trkpt>
      <trkpt lat="49.08944" lon="2.47033">
        <ele>89.54</ele>
        <time>2014-01-17T08:58:36Z</time>
      </trkpt>
      <trkpt lat="49.08959" lon="2.47017">
        <ele>90.5</ele>
        <time>2014-01-17T08:58:51Z</time>
      </trkpt>
      <trkpt lat="49.0898" lon="2.47003">
        <ele>91.94</ele>
        <time>2014-01-17T08:59:05Z</time>
      </trkpt>
      <trkpt lat="49.08997" lon="2.46999">
        <ele>90.5</ele>
        <time>2014-01-17T08:59:19Z</time>
      </trkpt>
      <trkpt lat="49.0901" lon="2.46999">
        <ele>88.58</ele>
        <time>2014-01-17T08:59:30Z</time>
      </trkpt>
      <trkpt lat="49.09012" lon="2.46999">
        <ele>88.1</ele>
        <time>2014-01-17T08:59:32Z</time>
      </trkpt>
      <trkpt lat="49.09021" lon="2.47005">
        <ele>87.62</ele>
        <time>2014-01-17T08:59:38Z</time>
      </trkpt>
      <trkpt lat="49.09048" lon="2.47016">
        <ele>84.73</ele>
        <time>2014-01-17T08:59:57Z</time>
      </trkpt>
      <trkpt lat="49.09049" lon="2.47017">
        <ele>84.25</ele>
        <time>2014-01-17T08:59:58Z</time>
      </trkpt>
      <trkpt lat="49.09055" lon="2.47018">
        <ele>82.33</ele>
        <time>2014-01-17T09:00:02Z</time>
      </trkpt>
      <trkpt lat="49.09067" lon="2.47022">
        <ele>80.89</ele>
        <time>2014-01-17T09:00:09Z</time>
      </trkpt>
      <trkpt lat="49.0907" lon="2.47021">
        <ele>81.37</ele>
        <time>2014-01-17T09:00:12Z</time>
      </trkpt>
      <trkpt lat="49.09086" lon="2.47025">
        <ele>81.37</ele>
        <time>2014-01-17T09:00:21Z</time>
      </trkpt>
      <trkpt lat="49.09095" lon="2.47023">
        <ele>81.85</ele>
        <time>2014-01-17T09:00:27Z</time>
      </trkpt>
      <trkpt lat="49.09115" lon="2.47023">
        <ele>80.89</ele>
        <time>2014-01-17T09:00:40Z</time>
      </trkpt>
      <trkpt lat="49.09121" lon="2.47022">
        <ele>80.89</ele>
        <time>2014-01-17T09:00:44Z</time>
      </trkpt>
      <trkpt lat="49.09129" lon="2.4702">
        <ele>79.45</ele>
        <time>2014-01-17T09:00:49Z</time>
      </trkpt>
      <trkpt lat="49.09137" lon="2.47017">
        <ele>79.45</ele>
        <time>2014-01-17T09:00:55Z</time>
      </trkpt>
      <trkpt lat="49.09143" lon="2.47012">
        <ele>78.97</ele>
        <time>2014-01-17T09:01:00Z</time>
      </trkpt>
      <trkpt lat="49.09156" lon="2.46998">
        <ele>77.04</ele>
        <time>2014-01-17T09:01:13Z</time>
      </trkpt>
      <trkpt lat="49.09162" lon="2.46995">
        <ele>75.6</ele>
        <time>2014-01-17T09:01:17Z</time>
      </trkpt>
      <trkpt lat="49.09167" lon="2.46991">
        <ele>74.64</ele>
        <time>2014-01-17T09:01:21Z</time>
      </trkpt>
      <trkpt lat="49.09189" lon="2.4698">
        <ele>71.76</ele>
        <time>2014-01-17T09:01:42Z</time>
      </trkpt>
      <trkpt lat="49.09208" lon="2.46974">
        <ele>70.31</ele>
        <time>2014-01-17T09:01:57Z</time>
      </trkpt>
      <trkpt lat="49.09209" lon="2.46973">
        <ele>70.31</ele>
        <time>2014-01-17T09:01:58Z</time>
      </trkpt>
      <trkpt lat="49.09228" lon="2.4696">
        <ele>71.76</ele>
        <time>2014-01-17T09:02:14Z</time>
      </trkpt>
      <trkpt lat="49.09243" lon="2.46945">
        <ele>74.16</ele>
        <time>2014-01-17T09:02:30Z</time>
      </trkpt>
      <trkpt lat="49.09257" lon="2.46933">
        <ele>75.6</ele>
        <time>2014-01-17T09:02:45Z</time>
      </trkpt>
      <trkpt lat="49.09276" lon="2.46914">
        <ele>76.56</ele>
        <time>2014-01-17T09:02:58Z</time>
      </trkpt>
      <trkpt lat="49.09297" lon="2.46897">
        <ele>70.31</ele>
        <time>2014-01-17T09:03:12Z</time>
      </trkpt>
      <trkpt lat="49.09299" lon="2.46895">
        <ele>68.87</ele>
        <time>2014-01-17T09:03:14Z</time>
      </trkpt>
      <trkpt lat="49.09312" lon="2.46877">
        <ele>65.99</ele>
        <time>2014-01-17T09:03:26Z</time>
      </trkpt>
      <trkpt lat="49.09317" lon="2.46845">
        <ele>64.55</ele>
        <time>2014-01-17T09:03:42Z</time>
      </trkpt>
      <trkpt lat="49.09322" lon="2.46814">
        <ele>67.43</ele>
        <time>2014-01-17T09:03:58Z</time>
      </trkpt>
      <trkpt lat="49.09329" lon="2.46785">
        <ele>67.91</ele>
        <time>2014-01-17T09:04:15Z</time>
      </trkpt>
      <trkpt lat="49.09334" lon="2.46754">
        <ele>65.99</ele>
        <time>2014-01-17T09:04:29Z</time>
      </trkpt>
      <trkpt lat="49.09341" lon="2.46724">
        <ele>63.58</ele>
        <time>2014-01-17T09:04:45Z</time>
      </trkpt>
      <trkpt lat="49.09344" lon="2.46704">
        <ele>61.66</ele>
        <time>2014-01-17T09:04:57Z</time>
      </trkpt>
      <trkpt lat="49.09354" lon="2.46674">
        <ele>62.62</ele>
        <time>2014-01-17T09:05:12Z</time>
      </trkpt>
      <trkpt lat="49.09355" lon="2.46645">
        <ele>59.26</ele>
        <time>2014-01-17T09:05:28Z</time>
      </trkpt>
      <trkpt lat="49.09358" lon="2.46609">
        <ele>58.3</ele>
        <time>2014-01-17T09:05:46Z</time>
      </trkpt>
      <trkpt lat="49.0936" lon="2.46594">
        <ele>61.66</ele>
        <time>2014-01-17T09:05:52Z</time>
      </trkpt>
      <trkpt lat="49.09365" lon="2.46559">
        <ele>63.58</ele>
        <time>2014-01-17T09:06:10Z</time>
      </trkpt>
      <trkpt lat="49.09367" lon="2.46554">
        <ele>63.1</ele>
        <time>2014-01-17T09:06:13Z</time>
      </trkpt>
      <trkpt lat="49.09372" lon="2.46512">
        <ele>65.51</ele>
        <time>2014-01-17T09:06:32Z</time>
      </trkpt>
      <trkpt lat="49.09376" lon="2.46498">
        <ele>65.51</ele>
        <time>2014-01-17T09:06:41Z</time>
      </trkpt>
      <trkpt lat="49.09381" lon="2.4647">
        <ele>69.83</ele>
        <time>2014-01-17T09:06:55Z</time>
      </trkpt>
      <trkpt lat="49.09393" lon="2.46445">
        <ele>70.31</ele>
        <time>2014-01-17T09:07:09Z</time>
      </trkpt>
      <trkpt lat="49.09405" lon="2.46425">
        <ele>72.72</ele>
        <time>2014-01-17T09:07:19Z</time>
      </trkpt>
      <trkpt lat="49.09413" lon="2.46411">
        <ele>72.24</ele>
        <time>2014-01-17T09:07:27Z</time>
      </trkpt>
      <trkpt lat="49.09428" lon="2.46398">
        <ele>68.87</ele>
        <time>2014-01-17T09:07:41Z</time>
      </trkpt>
      <trkpt lat="49.09445" lon="2.46391">
        <ele>69.83</ele>
        <time>2014-01-17T09:07:53Z</time>
      </trkpt>
      <trkpt lat="49.09469" lon="2.4639">
        <ele>71.27</ele>
        <time>2014-01-17T09:08:08Z</time>
      </trkpt>
      <trkpt lat="49.09476" lon="2.46392">
        <ele>71.27</ele>
        <time>2014-01-17T09:08:14Z</time>
      </trkpt>
      <trkpt lat="49.09496" lon="2.46392">
        <ele>72.24</ele>
        <time>2014-01-17T09:08:28Z</time>
      </trkpt>
      <trkpt lat="49.09516" lon="2.46388">
        <ele>69.83</ele>
        <time>2014-01-17T09:08:41Z</time>
      </trkpt>
      <trkpt lat="49.09536" lon="2.4639">
        <ele>66.95</ele>
        <time>2014-01-17T09:08:56Z</time>
      </trkpt>
      <trkpt lat="49.09553" lon="2.46395">
        <ele>67.91</ele>
        <time>2014-01-17T09:09:08Z</time>
      </trkpt>
      <trkpt lat="49.09573" lon="2.46404">
        <ele>70.31</ele>
        <time>2014-01-17T09:09:22Z</time>
      </trkpt>
      <trkpt lat="49.0959" lon="2.46422">
        <ele>67.43</ele>
        <time>2014-01-17T09:09:35Z</time>
      </trkpt>
      <trkpt lat="49.09604" lon="2.46446">
        <ele>63.58</ele>
        <time>2014-01-17T09:09:50Z</time>
      </trkpt>
      <trkpt lat="49.09612" lon="2.46469">
        <ele>62.62</ele>
        <time>2014-01-17T09:10:01Z</time>
      </trkpt>
      <trkpt lat="49.09619" lon="2.46484">
        <ele>62.14</ele>
        <time>2014-01-17T09:10:10Z</time>
      </trkpt>
      <trkpt lat="49.09631" lon="2.46516">
        <ele>62.62</ele>
        <time>2014-01-17T09:10:28Z</time>
      </trkpt>
      <trkpt lat="49.09638" lon="2.46528">
        <ele>60.7</ele>
        <time>2014-01-17T09:10:36Z</time>
      </trkpt>
      <trkpt lat="49.09644" lon="2.46533">
        <ele>60.22</ele>
        <time>2014-01-17T09:10:40Z</time>
      </trkpt>
      <trkpt lat="49.09663" lon="2.46551">
        <ele>61.66</ele>
        <time>2014-01-17T09:10:55Z</time>
      </trkpt>
      <trkpt lat="49.09674" lon="2.46559">
        <ele>61.66</ele>
        <time>2014-01-17T09:11:03Z</time>
      </trkpt>
      <trkpt lat="49.09678" lon="2.46562">
        <ele>61.66</ele>
        <time>2014-01-17T09:11:07Z</time>
      </trkpt>
      <trkpt lat="49.09693" lon="2.46575">
        <ele>60.22</ele>
        <time>2014-01-17T09:11:20Z</time>
      </trkpt>
      <trkpt lat="49.09699" lon="2.46578">
        <ele>60.22</ele>
        <time>2014-01-17T09:11:24Z</time>
      </trkpt>
      <trkpt lat="49.09718" lon="2.46591">
        <ele>64.07</ele>
        <time>2014-01-17T09:11:39Z</time>
      </trkpt>
      <trkpt lat="49.09725" lon="2.46594">
        <ele>64.07</ele>
        <time>2014-01-17T09:11:44Z</time>
      </trkpt>
      <trkpt lat="49.09746" lon="2.46604">
        <ele>61.18</ele>
        <time>2014-01-17T09:11:59Z</time>
      </trkpt>
      <trkpt lat="49.09764" lon="2.46607">
        <ele>62.14</ele>
        <time>2014-01-17T09:12:13Z</time>
      </trkpt>
      <trkpt lat="49.09779" lon="2.46608">
        <ele>64.07</ele>
        <time>2014-01-17T09:12:24Z</time>
      </trkpt>
      <trkpt lat="49.09788" lon="2.46607">
        <ele>64.07</ele>
        <time>2014-01-17T09:12:30Z</time>
      </trkpt>
      <trkpt lat="49.098" lon="2.46618">
        <ele>65.99</ele>
        <time>2014-01-17T09:12:42Z</time>
      </trkpt>
      <trkpt lat="49.098" lon="2.46623">
        <ele>66.47</ele>
        <time>2014-01-17T09:12:45Z</time>
      </trkpt>
      <trkpt lat="49.09793" lon="2.46641">
        <ele>65.99</ele>
        <time>2014-01-17T09:12:55Z</time>
      </trkpt>
      <trkpt lat="49.09784" lon="2.46666">
        <ele>66.95</ele>
        <time>2014-01-17T09:13:10Z</time>
      </trkpt>
      <trkpt lat="49.09781" lon="2.46679">
        <ele>67.43</ele>
        <time>2014-01-17T09:13:16Z</time>
      </trkpt>
      <trkpt lat="49.09781" lon="2.46703">
        <ele>68.87</ele>
        <time>2014-01-17T09:13:29Z</time>
      </trkpt>
      <trkpt lat="49.09785" lon="2.4673">
        <ele>71.27</ele>
        <time>2014-01-17T09:13:44Z</time>
      </trkpt>
      <trkpt lat="49.09795" lon="2.46767">
        <ele>66.95</ele>
        <time>2014-01-17T09:14:02Z</time>
      </trkpt>
      <trkpt lat="49.09813" lon="2.4679">
        <ele>65.51</ele>
        <time>2014-01-17T09:14:19Z</time>
      </trkpt>
      <trkpt lat="49.09823" lon="2.46803">
        <ele>65.51</ele>
        <time>2014-01-17T09:14:31Z</time>
      </trkpt>
      <trkpt lat="49.09836" lon="2.46811">
        <ele>67.91</ele>
        <time>2014-01-17T09:14:46Z</time>
      </trkpt>
      <trkpt lat="49.09847" lon="2.46819">
        <ele>72.72</ele>
        <time>2014-01-17T09:15:01Z</time>
      </trkpt>
      <trkpt lat="49.09862" lon="2.46825">
        <ele>78.48</ele>
        <time>2014-01-17T09:15:19Z</time>
      </trkpt>
      <trkpt lat="49.09868" lon="2.46833">
        <ele>80.41</ele>
        <time>2014-01-17T09:15:26Z</time>
      </trkpt>
      <trkpt lat="49.09885" lon="2.46854">
        <ele>82.33</ele>
        <time>2014-01-17T09:15:44Z</time>
      </trkpt>
      <trkpt lat="49.09894" lon="2.46868">
        <ele>85.21</ele>
        <time>2014-01-17T09:15:58Z</time>
      </trkpt>
      <trkpt lat="49.09906" lon="2.46885">
        <ele>88.1</ele>
        <time>2014-01-17T09:16:14Z</time>
      </trkpt>
      <trkpt lat="49.09923" lon="2.46909">
        <ele>87.14</ele>
        <time>2014-01-17T09:16:30Z</time>
      </trkpt>
      <trkpt lat="49.09927" lon="2.46911">
        <ele>87.62</ele>
        <time>2014-01-17T09:16:34Z</time>
      </trkpt>
      <trkpt lat="49.0993" lon="2.46914">
        <ele>87.62</ele>
        <time>2014-01-17T09:16:37Z</time>
      </trkpt>
      <trkpt lat="49.09941" lon="2.46929">
        <ele>88.58</ele>
        <time>2014-01-17T09:16:53Z</time>
      </trkpt>
      <trkpt lat="49.09956" lon="2.46949">
        <ele>89.06</ele>
        <time>2014-01-17T09:17:10Z</time>
      </trkpt>
      <trkpt lat="49.09977" lon="2.46981">
        <ele>90.5</ele>
        <time>2014-01-17T09:17:30Z</time>
      </trkpt>
      <trkpt lat="49.09987" lon="2.46999">
        <ele>90.98</ele>
        <time>2014-01-17T09:17:40Z</time>
      </trkpt>
      <trkpt lat="49.10004" lon="2.47019">
        <ele>91.46</ele>
        <time>2014-01-17T09:17:56Z</time>
      </trkpt>
      <trkpt lat="49.1002" lon="2.4705">
        <ele>92.9</ele>
        <time>2014-01-17T09:18:14Z</time>
      </trkpt>
      <trkpt lat="49.10032" lon="2.47074">
        <ele>94.35</ele>
        <time>2014-01-17T09:18:30Z</time>
      </trkpt>
      <trkpt lat="49.10044" lon="2.47104">
        <ele>96.27</ele>
        <time>2014-01-17T09:18:46Z</time>
      </trkpt>
      <trkpt lat="49.10055" lon="2.47138">
        <ele>96.75</ele>
        <time>2014-01-17T09:19:03Z</time>
      </trkpt>
      <trkpt lat="49.10064" lon="2.47155">
        <ele>96.27</ele>
        <time>2014-01-17T09:19:15Z</time>
      </trkpt>
      <trkpt lat="49.10072" lon="2.47186">
        <ele>96.75</ele>
        <time>2014-01-17T09:19:30Z</time>
      </trkpt>
      <trkpt lat="49.10087" lon="2.4722">
        <ele>98.67</ele>
        <time>2014-01-17T09:19:49Z</time>
      </trkpt>
      <trkpt lat="49.10101" lon="2.47255">
        <ele>100.6</ele>
        <time>2014-01-17T09:20:08Z</time>
      </trkpt>
      <trkpt lat="49.10114" lon="2.4729">
        <ele>103.48</ele>
        <time>2014-01-17T09:20:27Z</time>
      </trkpt>
      <trkpt lat="49.10121" lon="2.47303">
        <ele>104.44</ele>
        <time>2014-01-17T09:20:37Z</time>
      </trkpt>
      <trkpt lat="49.10132" lon="2.47329">
        <ele>103.96</ele>
        <time>2014-01-17T09:20:51Z</time>
      </trkpt>
      <trkpt lat="49.10145" lon="2.47347">
        <ele>103.96</ele>
        <time>2014-01-17T09:21:08Z</time>
      </trkpt>
      <trkpt lat="49.10146" lon="2.47344">
        <ele>103.96</ele>
        <time>2014-01-17T09:21:10Z</time>
      </trkpt>
      <trkpt lat="49.10149" lon="2.47332">
        <ele>104.44</ele>
        <time>2014-01-17T09:21:17Z</time>
      </trkpt>
      <trkpt lat="49.10151" lon="2.47312">
        <ele>104.92</ele>
        <time>2014-01-17T09:21:27Z</time>
      </trkpt>
      <trkpt lat="49.10151" lon="2.47305">
        <ele>105.4</ele>
        <time>2014-01-17T09:21:31Z</time>
      </trkpt>
      <trkpt lat="49.10161" lon="2.47274">
        <ele>105.88</ele>
        <time>2014-01-17T09:21:47Z</time>
      </trkpt>
      <trkpt lat="49.10162" lon="2.47268">
        <ele>105.4</ele>
        <time>2014-01-17T09:21:50Z</time>
      </trkpt>
      <trkpt lat="49.10178" lon="2.47242">
        <ele>103.96</ele>
        <time>2014-01-17T09:22:07Z</time>
      </trkpt>
      <trkpt lat="49.10194" lon="2.47222">
        <ele>103</ele>
        <time>2014-01-17T09:22:21Z</time>
      </trkpt>
      <trkpt lat="49.10202" lon="2.47207">
        <ele>103</ele>
        <time>2014-01-17T09:22:40Z</time>
      </trkpt>
      <trkpt lat="49.10216" lon="2.4718">
        <ele>100.11</ele>
        <time>2014-01-17T09:22:58Z</time>
      </trkpt>
      <trkpt lat="49.10232" lon="2.47167">
        <ele>101.08</ele>
        <time>2014-01-17T09:23:13Z</time>
      </trkpt>
      <trkpt lat="49.1024" lon="2.47161">
        <ele>102.04</ele>
        <time>2014-01-17T09:23:20Z</time>
      </trkpt>
      <trkpt lat="49.10266" lon="2.47152">
        <ele>102.52</ele>
        <time>2014-01-17T09:23:41Z</time>
      </trkpt>
      <trkpt lat="49.10269" lon="2.47153">
        <ele>102.52</ele>
        <time>2014-01-17T09:23:53Z</time>
      </trkpt>
      <trkpt lat="49.10279" lon="2.47151">
        <ele>102.52</ele>
        <time>2014-01-17T09:24:09Z</time>
      </trkpt>
      <trkpt lat="49.10297" lon="2.47147">
        <ele>103.96</ele>
        <time>2014-01-17T09:24:24Z</time>
      </trkpt>
      <trkpt lat="49.10311" lon="2.47141">
        <ele>105.4</ele>
        <time>2014-01-17T09:24:40Z</time>
      </trkpt>
      <trkpt lat="49.10319" lon="2.4714">
        <ele>104.92</ele>
        <time>2014-01-17T09:24:45Z</time>
      </trkpt>
      <trkpt lat="49.10331" lon="2.47134">
        <ele>105.88</ele>
        <time>2014-01-17T09:24:53Z</time>
      </trkpt>
      <trkpt lat="49.10333" lon="2.47129">
        <ele>106.36</ele>
        <time>2014-01-17T09:24:57Z</time>
      </trkpt>
      <trkpt lat="49.1035" lon="2.4712">
        <ele>107.32</ele>
        <time>2014-01-17T09:25:10Z</time>
      </trkpt>
      <trkpt lat="49.10374" lon="2.47109">
        <ele>105.88</ele>
        <time>2014-01-17T09:25:29Z</time>
      </trkpt>
      <trkpt lat="49.10375" lon="2.47109">
        <ele>105.4</ele>
        <time>2014-01-17T09:25:30Z</time>
      </trkpt>
      <trkpt lat="49.10383" lon="2.47109">
        <ele>104.92</ele>
        <time>2014-01-17T09:25:35Z</time>
      </trkpt>
      <trkpt lat="49.10405" lon="2.47103">
        <ele>103.96</ele>
        <time>2014-01-17T09:25:51Z</time>
      </trkpt>
      <trkpt lat="49.10419" lon="2.47101">
        <ele>104.44</ele>
        <time>2014-01-17T09:26:04Z</time>
      </trkpt>
      <trkpt lat="49.1042" lon="2.471">
        <ele>104.44</ele>
        <time>2014-01-17T09:26:05Z</time>
      </trkpt>
      <trkpt lat="49.10438" lon="2.47098">
        <ele>105.4</ele>
        <time>2014-01-17T09:26:18Z</time>
      </trkpt>
      <trkpt lat="49.10442" lon="2.47099">
        <ele>104.92</ele>
        <time>2014-01-17T09:26:21Z</time>
      </trkpt>
      <trkpt lat="49.10457" lon="2.47093">
        <ele>106.84</ele>
        <time>2014-01-17T09:26:37Z</time>
      </trkpt>
      <trkpt lat="49.10474" lon="2.47081">
        <ele>111.17</ele>
        <time>2014-01-17T09:26:49Z</time>
      </trkpt>
      <trkpt lat="49.10485" lon="2.47072">
        <ele>111.65</ele>
        <time>2014-01-17T09:26:57Z</time>
      </trkpt>
      <trkpt lat="49.10488" lon="2.47072">
        <ele>111.65</ele>
        <time>2014-01-17T09:26:59Z</time>
      </trkpt>
      <trkpt lat="49.1051" lon="2.47042">
        <ele>108.77</ele>
        <time>2014-01-17T09:27:15Z</time>
      </trkpt>
      <trkpt lat="49.10525" lon="2.47018">
        <ele>107.32</ele>
        <time>2014-01-17T09:27:30Z</time>
      </trkpt>
      <trkpt lat="49.10542" lon="2.46998">
        <ele>107.32</ele>
        <time>2014-01-17T09:27:46Z</time>
      </trkpt>
      <trkpt lat="49.10563" lon="2.46977">
        <ele>106.36</ele>
        <time>2014-01-17T09:28:05Z</time>
      </trkpt>
      <trkpt lat="49.10575" lon="2.4696">
        <ele>107.32</ele>
        <time>2014-01-17T09:28:20Z</time>
      </trkpt>
      <trkpt lat="49.10588" lon="2.46947">
        <ele>108.29</ele>
        <time>2014-01-17T09:28:35Z</time>
      </trkpt>
      <trkpt lat="49.1059" lon="2.46947">
        <ele>108.29</ele>
        <time>2014-01-17T09:28:37Z</time>
      </trkpt>
      <trkpt lat="49.10601" lon="2.46942">
        <ele>109.25</ele>
        <time>2014-01-17T09:28:49Z</time>
      </trkpt>
      <trkpt lat="49.10603" lon="2.46968">
        <ele>110.21</ele>
        <time>2014-01-17T09:29:02Z</time>
      </trkpt>
      <trkpt lat="49.10606" lon="2.47">
        <ele>112.13</ele>
        <time>2014-01-17T09:29:20Z</time>
      </trkpt>
      <trkpt lat="49.10607" lon="2.47014">
        <ele>112.61</ele>
        <time>2014-01-17T09:29:38Z</time>
      </trkpt>
      <trkpt lat="49.10609" lon="2.47026">
        <ele>111.65</ele>
        <time>2014-01-17T09:29:52Z</time>
      </trkpt>
      <trkpt lat="49.10609" lon="2.47046">
        <ele>111.17</ele>
        <time>2014-01-17T09:30:10Z</time>
      </trkpt>
      <trkpt lat="49.10611" lon="2.47083">
        <ele>111.65</ele>
        <time>2014-01-17T09:30:24Z</time>
      </trkpt>
      <trkpt lat="49.10614" lon="2.47098">
        <ele>111.65</ele>
        <time>2014-01-17T09:30:34Z</time>
      </trkpt>
      <trkpt lat="49.10614" lon="2.47129">
        <ele>111.17</ele>
        <time>2014-01-17T09:30:48Z</time>
      </trkpt>
      <trkpt lat="49.10617" lon="2.47146">
        <ele>109.25</ele>
        <time>2014-01-17T09:31:02Z</time>
      </trkpt>
      <trkpt lat="49.10622" lon="2.47185">
        <ele>108.29</ele>
        <time>2014-01-17T09:31:24Z</time>
      </trkpt>
      <trkpt lat="49.10622" lon="2.47197">
        <ele>109.25</ele>
        <time>2014-01-17T09:31:40Z</time>
      </trkpt>
      <trkpt lat="49.10618" lon="2.47213">
        <ele>110.69</ele>
        <time>2014-01-17T09:31:50Z</time>
      </trkpt>
      <trkpt lat="49.10617" lon="2.47227">
        <ele>111.17</ele>
        <time>2014-01-17T09:31:57Z</time>
      </trkpt>
      <trkpt lat="49.10614" lon="2.47242">
        <ele>111.65</ele>
        <time>2014-01-17T09:32:05Z</time>
      </trkpt>
      <trkpt lat="49.10609" lon="2.47279">
        <ele>111.17</ele>
        <time>2014-01-17T09:32:22Z</time>
      </trkpt>
      <trkpt lat="49.10606" lon="2.47311">
        <ele>111.65</ele>
        <time>2014-01-17T09:32:36Z</time>
      </trkpt>
      <trkpt lat="49.10602" lon="2.47334">
        <ele>111.17</ele>
        <time>2014-01-17T09:32:49Z</time>
      </trkpt>
      <trkpt lat="49.10599" lon="2.47356">
        <ele>111.65</ele>
        <time>2014-01-17T09:33:01Z</time>
      </trkpt>
      <trkpt lat="49.10598" lon="2.47363">
        <ele>111.65</ele>
        <time>2014-01-17T09:33:05Z</time>
      </trkpt>
      <trkpt lat="49.10593" lon="2.47399">
        <ele>113.09</ele>
        <time>2014-01-17T09:33:22Z</time>
      </trkpt>
      <trkpt lat="49.10584" lon="2.47438">
        <ele>115.5</ele>
        <time>2014-01-17T09:33:40Z</time>
      </trkpt>
      <trkpt lat="49.10579" lon="2.4747">
        <ele>115.5</ele>
        <time>2014-01-17T09:33:55Z</time>
      </trkpt>
      <trkpt lat="49.10575" lon="2.47492">
        <ele>116.46</ele>
        <time>2014-01-17T09:34:12Z</time>
      </trkpt>
      <trkpt lat="49.10574" lon="2.47514">
        <ele>116.46</ele>
        <time>2014-01-17T09:34:32Z</time>
      </trkpt>
      <trkpt lat="49.10572" lon="2.47535">
        <ele>116.94</ele>
        <time>2014-01-17T09:34:48Z</time>
      </trkpt>
      <trkpt lat="49.10571" lon="2.47544">
        <ele>117.42</ele>
        <time>2014-01-17T09:35:02Z</time>
      </trkpt>
      <trkpt lat="49.10577" lon="2.47557">
        <ele>118.86</ele>
        <time>2014-01-17T09:35:19Z</time>
      </trkpt>
      <trkpt lat="49.10577" lon="2.47556">
        <ele>118.86</ele>
        <time>2014-01-17T09:35:23Z</time>
      </trkpt>
      <trkpt lat="49.10572" lon="2.47586">
        <ele>119.82</ele>
        <time>2014-01-17T09:35:37Z</time>
      </trkpt>
      <trkpt lat="49.10572" lon="2.47618">
        <ele>120.78</ele>
        <time>2014-01-17T09:35:53Z</time>
      </trkpt>
      <trkpt lat="49.10573" lon="2.4765">
        <ele>120.3</ele>
        <time>2014-01-17T09:36:08Z</time>
      </trkpt>
      <trkpt lat="49.10575" lon="2.47684">
        <ele>119.82</ele>
        <time>2014-01-17T09:36:23Z</time>
      </trkpt>
      <trkpt lat="49.10577" lon="2.47718">
        <ele>120.3</ele>
        <time>2014-01-17T09:36:38Z</time>
      </trkpt>
      <trkpt lat="49.10578" lon="2.4775">
        <ele>120.3</ele>
        <time>2014-01-17T09:36:53Z</time>
      </trkpt>
      <trkpt lat="49.10578" lon="2.47784">
        <ele>120.3</ele>
        <time>2014-01-17T09:37:09Z</time>
      </trkpt>
      <trkpt lat="49.1058" lon="2.47795">
        <ele>120.3</ele>
        <time>2014-01-17T09:37:16Z</time>
      </trkpt>
      <trkpt lat="49.10584" lon="2.47831">
        <ele>120.3</ele>
        <time>2014-01-17T09:37:33Z</time>
      </trkpt>
      <trkpt lat="49.1059" lon="2.47856">
        <ele>120.3</ele>
        <time>2014-01-17T09:37:49Z</time>
      </trkpt>
      <trkpt lat="49.10595" lon="2.47875">
        <ele>121.74</ele>
        <time>2014-01-17T09:38:02Z</time>
      </trkpt>
      <trkpt lat="49.10601" lon="2.47903">
        <ele>122.71</ele>
        <time>2014-01-17T09:38:15Z</time>
      </trkpt>
      <trkpt lat="49.1061" lon="2.47932">
        <ele>122.71</ele>
        <time>2014-01-17T09:38:31Z</time>
      </trkpt>
      <trkpt lat="49.10617" lon="2.47967">
        <ele>122.22</ele>
        <time>2014-01-17T09:38:48Z</time>
      </trkpt>
      <trkpt lat="49.10625" lon="2.48014">
        <ele>122.22</ele>
        <time>2014-01-17T09:39:10Z</time>
      </trkpt>
      <trkpt lat="49.10627" lon="2.48027">
        <ele>123.67</ele>
        <time>2014-01-17T09:39:25Z</time>
      </trkpt>
      <trkpt lat="49.10631" lon="2.4806">
        <ele>124.63</ele>
        <time>2014-01-17T09:39:39Z</time>
      </trkpt>
      <trkpt lat="49.10637" lon="2.48095">
        <ele>124.63</ele>
        <time>2014-01-17T09:39:57Z</time>
      </trkpt>
      <trkpt lat="49.10641" lon="2.48128">
        <ele>125.11</ele>
        <time>2014-01-17T09:40:13Z</time>
      </trkpt>
      <trkpt lat="49.10646" lon="2.48154">
        <ele>125.11</ele>
        <time>2014-01-17T09:40:26Z</time>
      </trkpt>
      <trkpt lat="49.10651" lon="2.48188">
        <ele>125.11</ele>
        <time>2014-01-17T09:40:42Z</time>
      </trkpt>
      <trkpt lat="49.10656" lon="2.48228">
        <ele>125.59</ele>
        <time>2014-01-17T09:41:00Z</time>
      </trkpt>
      <trkpt lat="49.10661" lon="2.48263">
        <ele>125.11</ele>
        <time>2014-01-17T09:41:16Z</time>
      </trkpt>
      <trkpt lat="49.10666" lon="2.48295">
        <ele>125.59</ele>
        <time>2014-01-17T09:41:32Z</time>
      </trkpt>
      <trkpt lat="49.10671" lon="2.48323">
        <ele>126.55</ele>
        <time>2014-01-17T09:41:45Z</time>
      </trkpt>
      <trkpt lat="49.10679" lon="2.48354">
        <ele>126.07</ele>
        <time>2014-01-17T09:42:00Z</time>
      </trkpt>
      <trkpt lat="49.10689" lon="2.48384">
        <ele>125.59</ele>
        <time>2014-01-17T09:42:16Z</time>
      </trkpt>
      <trkpt lat="49.107" lon="2.48414">
        <ele>127.03</ele>
        <time>2014-01-17T09:42:31Z</time>
      </trkpt>
      <trkpt lat="49.10702" lon="2.48448">
        <ele>127.03</ele>
        <time>2014-01-17T09:42:49Z</time>
      </trkpt>
      <trkpt lat="49.107" lon="2.48478">
        <ele>127.03</ele>
        <time>2014-01-17T09:43:04Z</time>
      </trkpt>
      <trkpt lat="49.10697" lon="2.48517">
        <ele>126.55</ele>
        <time>2014-01-17T09:43:23Z</time>
      </trkpt>
      <trkpt lat="49.10695" lon="2.48546">
        <ele>126.55</ele>
        <time>2014-01-17T09:43:36Z</time>
      </trkpt>
      <trkpt lat="49.10692" lon="2.48578">
        <ele>126.07</ele>
        <time>2014-01-17T09:43:50Z</time>
      </trkpt>
      <trkpt lat="49.10688" lon="2.48611">
        <ele>126.07</ele>
        <time>2014-01-17T09:44:05Z</time>
      </trkpt>
      <trkpt lat="49.10685" lon="2.48646">
        <ele>126.07</ele>
        <time>2014-01-17T09:44:21Z</time>
      </trkpt>
      <trkpt lat="49.10682" lon="2.48678">
        <ele>125.59</ele>
        <time>2014-01-17T09:44:36Z</time>
      </trkpt>
      <trkpt lat="49.10679" lon="2.48712">
        <ele>125.59</ele>
        <time>2014-01-17T09:44:52Z</time>
      </trkpt>
      <trkpt lat="49.10675" lon="2.48748">
        <ele>125.59</ele>
        <time>2014-01-17T09:45:09Z</time>
      </trkpt>
      <trkpt lat="49.10671" lon="2.48782">
        <ele>124.63</ele>
        <time>2014-01-17T09:45:24Z</time>
      </trkpt>
      <trkpt lat="49.10667" lon="2.48812">
        <ele>124.63</ele>
        <time>2014-01-17T09:45:38Z</time>
      </trkpt>
      <trkpt lat="49.10663" lon="2.48842">
        <ele>123.67</ele>
        <time>2014-01-17T09:45:52Z</time>
      </trkpt>
      <trkpt lat="49.10658" lon="2.48873">
        <ele>122.71</ele>
        <time>2014-01-17T09:46:07Z</time>
      </trkpt>
      <trkpt lat="49.10653" lon="2.48905">
        <ele>121.74</ele>
        <time>2014-01-17T09:46:22Z</time>
      </trkpt>
      <trkpt lat="49.10647" lon="2.48932">
        <ele>122.22</ele>
        <time>2014-01-17T09:46:35Z</time>
      </trkpt>
      <trkpt lat="49.1064" lon="2.48962">
        <ele>122.71</ele>
        <time>2014-01-17T09:46:50Z</time>
      </trkpt>
      <trkpt lat="49.10632" lon="2.48992">
        <ele>122.22</ele>
        <time>2014-01-17T09:47:04Z</time>
      </trkpt>
      <trkpt lat="49.10628" lon="2.49015">
        <ele>121.74</ele>
        <time>2014-01-17T09:47:16Z</time>
      </trkpt>
      <trkpt lat="49.10625" lon="2.4905">
        <ele>121.26</ele>
        <time>2014-01-17T09:47:31Z</time>
      </trkpt>
      <trkpt lat="49.10623" lon="2.49083">
        <ele>120.78</ele>
        <time>2014-01-17T09:47:47Z</time>
      </trkpt>
      <trkpt lat="49.10615" lon="2.49117">
        <ele>120.78</ele>
        <time>2014-01-17T09:48:03Z</time>
      </trkpt>
      <trkpt lat="49.10608" lon="2.49152">
        <ele>121.74</ele>
        <time>2014-01-17T09:48:20Z</time>
      </trkpt>
      <trkpt lat="49.10607" lon="2.49159">
        <ele>121.74</ele>
        <time>2014-01-17T09:48:25Z</time>
      </trkpt>
      <trkpt lat="49.10599" lon="2.49191">
        <ele>121.74</ele>
        <time>2014-01-17T09:48:40Z</time>
      </trkpt>
      <trkpt lat="49.10594" lon="2.49209">
        <ele>121.26</ele>
        <time>2014-01-17T09:48:54Z</time>
      </trkpt>
      <trkpt lat="49.1059" lon="2.49222">
        <ele>120.78</ele>
        <time>2014-01-17T09:49:05Z</time>
      </trkpt>
      <trkpt lat="49.10585" lon="2.49238">
        <ele>121.26</ele>
        <time>2014-01-17T09:49:15Z</time>
      </trkpt>
      <trkpt lat="49.10584" lon="2.49247">
        <ele>121.26</ele>
        <time>2014-01-17T09:49:20Z</time>
      </trkpt>
      <trkpt lat="49.10581" lon="2.49267">
        <ele>121.26</ele>
        <time>2014-01-17T09:49:32Z</time>
      </trkpt>
      <trkpt lat="49.10571" lon="2.493">
        <ele>121.26</ele>
        <time>2014-01-17T09:49:48Z</time>
      </trkpt>
      <trkpt lat="49.10564" lon="2.49329">
        <ele>121.74</ele>
        <time>2014-01-17T09:50:04Z</time>
      </trkpt>
      <trkpt lat="49.1056" lon="2.49349">
        <ele>122.71</ele>
        <time>2014-01-17T09:50:18Z</time>
      </trkpt>
      <trkpt lat="49.10552" lon="2.49388">
        <ele>121.74</ele>
        <time>2014-01-17T09:50:35Z</time>
      </trkpt>
      <trkpt lat="49.10548" lon="2.49425">
        <ele>121.74</ele>
        <time>2014-01-17T09:50:53Z</time>
      </trkpt>
      <trkpt lat="49.10548" lon="2.49426">
        <ele>122.22</ele>
        <time>2014-01-17T09:50:54Z</time>
      </trkpt>
      <trkpt lat="49.10548" lon="2.49434">
        <ele>121.74</ele>
        <time>2014-01-17T09:50:58Z</time>
      </trkpt>
      <trkpt lat="49.10546" lon="2.49458">
        <ele>122.22</ele>
        <time>2014-01-17T09:51:10Z</time>
      </trkpt>
      <trkpt lat="49.10546" lon="2.49462">
        <ele>122.22</ele>
        <time>2014-01-17T09:51:12Z</time>
      </trkpt>
      <trkpt lat="49.10543" lon="2.49504">
        <ele>122.22</ele>
        <time>2014-01-17T09:51:30Z</time>
      </trkpt>
      <trkpt lat="49.1054" lon="2.49537">
        <ele>122.22</ele>
        <time>2014-01-17T09:51:45Z</time>
      </trkpt>
      <trkpt lat="49.10535" lon="2.49569">
        <ele>122.71</ele>
        <time>2014-01-17T09:52:00Z</time>
      </trkpt>
      <trkpt lat="49.10531" lon="2.49602">
        <ele>122.71</ele>
        <time>2014-01-17T09:52:15Z</time>
      </trkpt>
      <trkpt lat="49.10527" lon="2.49631">
        <ele>122.71</ele>
        <time>2014-01-17T09:52:29Z</time>
      </trkpt>
      <trkpt lat="49.10522" lon="2.49663">
        <ele>122.71</ele>
        <time>2014-01-17T09:52:44Z</time>
      </trkpt>
      <trkpt lat="49.10518" lon="2.49693">
        <ele>122.22</ele>
        <time>2014-01-17T09:52:58Z</time>
      </trkpt>
      <trkpt lat="49.10518" lon="2.49704">
        <ele>121.26</ele>
        <time>2014-01-17T09:53:04Z</time>
      </trkpt>
      <trkpt lat="49.10513" lon="2.49741">
        <ele>121.26</ele>
        <time>2014-01-17T09:53:20Z</time>
      </trkpt>
      <trkpt lat="49.10511" lon="2.49763">
        <ele>120.78</ele>
        <time>2014-01-17T09:53:31Z</time>
      </trkpt>
      <trkpt lat="49.10505" lon="2.49803">
        <ele>119.82</ele>
        <time>2014-01-17T09:53:49Z</time>
      </trkpt>
      <trkpt lat="49.10499" lon="2.49836">
        <ele>120.3</ele>
        <time>2014-01-17T09:54:05Z</time>
      </trkpt>
      <trkpt lat="49.10493" lon="2.49865">
        <ele>119.34</ele>
        <time>2014-01-17T09:54:19Z</time>
      </trkpt>
      <trkpt lat="49.10484" lon="2.49894">
        <ele>118.86</ele>
        <time>2014-01-17T09:54:33Z</time>
      </trkpt>
      <trkpt lat="49.10473" lon="2.49919">
        <ele>117.9</ele>
        <time>2014-01-17T09:54:47Z</time>
      </trkpt>
      <trkpt lat="49.10468" lon="2.49937">
        <ele>117.9</ele>
        <time>2014-01-17T09:54:58Z</time>
      </trkpt>
      <trkpt lat="49.10462" lon="2.49964">
        <ele>117.9</ele>
        <time>2014-01-17T09:55:12Z</time>
      </trkpt>
      <trkpt lat="49.1046" lon="2.4998">
        <ele>117.9</ele>
        <time>2014-01-17T09:55:18Z</time>
      </trkpt>
      <trkpt lat="49.10458" lon="2.50003">
        <ele>116.46</ele>
        <time>2014-01-17T09:55:30Z</time>
      </trkpt>
      <trkpt lat="49.10453" lon="2.50035">
        <ele>116.94</ele>
        <time>2014-01-17T09:55:45Z</time>
      </trkpt>
      <trkpt lat="49.10449" lon="2.50063">
        <ele>117.42</ele>
        <time>2014-01-17T09:55:58Z</time>
      </trkpt>
      <trkpt lat="49.10446" lon="2.50092">
        <ele>117.9</ele>
        <time>2014-01-17T09:56:12Z</time>
      </trkpt>
      <trkpt lat="49.10443" lon="2.50124">
        <ele>117.42</ele>
        <time>2014-01-17T09:56:26Z</time>
      </trkpt>
      <trkpt lat="49.10442" lon="2.5013">
        <ele>116.94</ele>
        <time>2014-01-17T09:56:29Z</time>
      </trkpt>
      <trkpt lat="49.10436" lon="2.50159">
        <ele>115.98</ele>
        <time>2014-01-17T09:56:44Z</time>
      </trkpt>
      <trkpt lat="49.1043" lon="2.50185">
        <ele>115.5</ele>
        <time>2014-01-17T09:56:56Z</time>
      </trkpt>
      <trkpt lat="49.1043" lon="2.50189">
        <ele>115.01</ele>
        <time>2014-01-17T09:56:58Z</time>
      </trkpt>
      <trkpt lat="49.10424" lon="2.5022">
        <ele>115.01</ele>
        <time>2014-01-17T09:57:12Z</time>
      </trkpt>
      <trkpt lat="49.10419" lon="2.50247">
        <ele>115.01</ele>
        <time>2014-01-17T09:57:25Z</time>
      </trkpt>
      <trkpt lat="49.10417" lon="2.50261">
        <ele>115.01</ele>
        <time>2014-01-17T09:57:31Z</time>
      </trkpt>
      <trkpt lat="49.10414" lon="2.50276">
        <ele>114.53</ele>
        <time>2014-01-17T09:57:49Z</time>
      </trkpt>
      <trkpt lat="49.10412" lon="2.50286">
        <ele>114.05</ele>
        <time>2014-01-17T09:58:19Z</time>
      </trkpt>
      <trkpt lat="49.10407" lon="2.50329">
        <ele>114.05</ele>
        <time>2014-01-17T09:58:40Z</time>
      </trkpt>
      <trkpt lat="49.10401" lon="2.50371">
        <ele>114.53</ele>
        <time>2014-01-17T09:59:00Z</time>
      </trkpt>
      <trkpt lat="49.104" lon="2.50382">
        <ele>114.05</ele>
        <time>2014-01-17T09:59:14Z</time>
      </trkpt>
      <trkpt lat="49.10397" lon="2.50397">
        <ele>114.53</ele>
        <time>2014-01-17T09:59:31Z</time>
      </trkpt>
      <trkpt lat="49.1039" lon="2.50433">
        <ele>114.53</ele>
        <time>2014-01-17T09:59:49Z</time>
      </trkpt>
      <trkpt lat="49.10388" lon="2.50447">
        <ele>115.01</ele>
        <time>2014-01-17T10:00:03Z</time>
      </trkpt>
      <trkpt lat="49.10382" lon="2.50485">
        <ele>115.98</ele>
        <time>2014-01-17T10:00:22Z</time>
      </trkpt>
      <trkpt lat="49.10378" lon="2.50535">
        <ele>116.94</ele>
        <time>2014-01-17T10:00:46Z</time>
      </trkpt>
      <trkpt lat="49.10377" lon="2.50574">
        <ele>118.38</ele>
        <time>2014-01-17T10:01:05Z</time>
      </trkpt>
      <trkpt lat="49.10377" lon="2.5061">
        <ele>119.82</ele>
        <time>2014-01-17T10:01:22Z</time>
      </trkpt>
      <trkpt lat="49.10379" lon="2.5065">
        <ele>120.78</ele>
        <time>2014-01-17T10:01:41Z</time>
      </trkpt>
      <trkpt lat="49.10378" lon="2.50655">
        <ele>120.3</ele>
        <time>2014-01-17T10:01:54Z</time>
      </trkpt>
      <trkpt lat="49.10378" lon="2.50655">
        <ele>120.3</ele>
        <time>2014-01-17T10:02:05Z</time>
      </trkpt>
      <trkpt lat="49.10384" lon="2.50679">
        <ele>120.3</ele>
        <time>2014-01-17T10:02:17Z</time>
      </trkpt>
      <trkpt lat="49.10381" lon="2.50723">
        <ele>120.78</ele>
        <time>2014-01-17T10:02:39Z</time>
      </trkpt>
      <trkpt lat="49.10372" lon="2.50757">
        <ele>121.74</ele>
        <time>2014-01-17T10:02:57Z</time>
      </trkpt>
      <trkpt lat="49.10363" lon="2.50795">
        <ele>122.22</ele>
        <time>2014-01-17T10:03:16Z</time>
      </trkpt>
      <trkpt lat="49.10357" lon="2.50833">
        <ele>122.71</ele>
        <time>2014-01-17T10:03:34Z</time>
      </trkpt>
      <trkpt lat="49.10356" lon="2.50864">
        <ele>122.71</ele>
        <time>2014-01-17T10:03:52Z</time>
      </trkpt>
      <trkpt lat="49.10356" lon="2.50864">
        <ele>122.71</ele>
        <time>2014-01-17T10:04:06Z</time>
      </trkpt>
      <trkpt lat="49.10358" lon="2.50865">
        <ele>123.19</ele>
        <time>2014-01-17T10:04:17Z</time>
      </trkpt>
      <trkpt lat="49.10357" lon="2.50871">
        <ele>123.67</ele>
        <time>2014-01-17T10:04:21Z</time>
      </trkpt>
      <trkpt lat="49.10354" lon="2.50875">
        <ele>123.67</ele>
        <time>2014-01-17T10:04:37Z</time>
      </trkpt>
      <trkpt lat="49.10354" lon="2.50875">
        <ele>123.67</ele>
        <time>2014-01-17T10:04:38Z</time>
      </trkpt>
      <trkpt lat="49.10354" lon="2.50884">
        <ele>123.19</ele>
        <time>2014-01-17T10:04:44Z</time>
      </trkpt>
      <trkpt lat="49.10358" lon="2.50886">
        <ele>123.19</ele>
        <time>2014-01-17T10:04:59Z</time>
      </trkpt>
      <trkpt lat="49.1034" lon="2.50883">
        <ele>122.22</ele>
        <time>2014-01-17T10:05:14Z</time>
      </trkpt>
      <trkpt lat="49.10314" lon="2.50881">
        <ele>121.74</ele>
        <time>2014-01-17T10:05:33Z</time>
      </trkpt>
      <trkpt lat="49.10297" lon="2.50897">
        <ele>122.71</ele>
        <time>2014-01-17T10:05:49Z</time>
      </trkpt>
      <trkpt lat="49.10287" lon="2.50919">
        <ele>125.11</ele>
        <time>2014-01-17T10:06:03Z</time>
      </trkpt>
      <trkpt lat="49.10284" lon="2.50938">
        <ele>124.63</ele>
        <time>2014-01-17T10:06:12Z</time>
      </trkpt>
      <trkpt lat="49.10289" lon="2.50977">
        <ele>122.71</ele>
        <time>2014-01-17T10:06:30Z</time>
      </trkpt>
      <trkpt lat="49.10291" lon="2.51017">
        <ele>121.74</ele>
        <time>2014-01-17T10:06:48Z</time>
      </trkpt>
      <trkpt lat="49.10294" lon="2.51046">
        <ele>122.22</ele>
        <time>2014-01-17T10:07:04Z</time>
      </trkpt>
      <trkpt lat="49.10297" lon="2.51086">
        <ele>123.19</ele>
        <time>2014-01-17T10:07:24Z</time>
      </trkpt>
      <trkpt lat="49.10298" lon="2.511">
        <ele>123.19</ele>
        <time>2014-01-17T10:07:31Z</time>
      </trkpt>
      <trkpt lat="49.103" lon="2.51133">
        <ele>120.3</ele>
        <time>2014-01-17T10:07:45Z</time>
      </trkpt>
      <trkpt lat="49.10303" lon="2.51165">
        <ele>119.82</ele>
        <time>2014-01-17T10:07:59Z</time>
      </trkpt>
      <trkpt lat="49.10305" lon="2.51199">
        <ele>121.26</ele>
        <time>2014-01-17T10:08:15Z</time>
      </trkpt>
      <trkpt lat="49.10308" lon="2.51237">
        <ele>119.82</ele>
        <time>2014-01-17T10:08:32Z</time>
      </trkpt>
      <trkpt lat="49.10309" lon="2.51271">
        <ele>118.38</ele>
        <time>2014-01-17T10:08:47Z</time>
      </trkpt>
      <trkpt lat="49.10311" lon="2.51307">
        <ele>117.9</ele>
        <time>2014-01-17T10:09:03Z</time>
      </trkpt>
      <trkpt lat="49.10313" lon="2.51339">
        <ele>118.38</ele>
        <time>2014-01-17T10:09:18Z</time>
      </trkpt>
      <trkpt lat="49.10315" lon="2.51368">
        <ele>118.38</ele>
        <time>2014-01-17T10:09:32Z</time>
      </trkpt>
      <trkpt lat="49.10314" lon="2.51399">
        <ele>118.38</ele>
        <time>2014-01-17T10:09:47Z</time>
      </trkpt>
      <trkpt lat="49.10314" lon="2.51432">
        <ele>118.86</ele>
        <time>2014-01-17T10:10:03Z</time>
      </trkpt>
      <trkpt lat="49.10312" lon="2.51467">
        <ele>118.86</ele>
        <time>2014-01-17T10:10:19Z</time>
      </trkpt>
      <trkpt lat="49.10309" lon="2.51505">
        <ele>118.86</ele>
        <time>2014-01-17T10:10:37Z</time>
      </trkpt>
      <trkpt lat="49.10306" lon="2.51536">
        <ele>119.82</ele>
        <time>2014-01-17T10:10:51Z</time>
      </trkpt>
      <trkpt lat="49.10301" lon="2.51541">
        <ele>119.82</ele>
        <time>2014-01-17T10:10:55Z</time>
      </trkpt>
      <trkpt lat="49.10294" lon="2.51578">
        <ele>118.86</ele>
        <time>2014-01-17T10:11:13Z</time>
      </trkpt>
      <trkpt lat="49.1029" lon="2.51611">
        <ele>117.9</ele>
        <time>2014-01-17T10:11:30Z</time>
      </trkpt>
      <trkpt lat="49.10285" lon="2.51646">
        <ele>118.38</ele>
        <time>2014-01-17T10:11:47Z</time>
      </trkpt>
      <trkpt lat="49.1028" lon="2.5168">
        <ele>117.9</ele>
        <time>2014-01-17T10:12:03Z</time>
      </trkpt>
      <trkpt lat="49.10273" lon="2.51719">
        <ele>118.86</ele>
        <time>2014-01-17T10:12:22Z</time>
      </trkpt>
      <trkpt lat="49.10269" lon="2.51737">
        <ele>120.3</ele>
        <time>2014-01-17T10:12:31Z</time>
      </trkpt>
      <trkpt lat="49.10262" lon="2.51771">
        <ele>122.71</ele>
        <time>2014-01-17T10:12:48Z</time>
      </trkpt>
      <trkpt lat="49.10256" lon="2.51788">
        <ele>123.67</ele>
        <time>2014-01-17T10:12:57Z</time>
      </trkpt>
      <trkpt lat="49.1025" lon="2.51827">
        <ele>122.71</ele>
        <time>2014-01-17T10:13:15Z</time>
      </trkpt>
      <trkpt lat="49.10243" lon="2.51857">
        <ele>120.78</ele>
        <time>2014-01-17T10:13:29Z</time>
      </trkpt>
      <trkpt lat="49.10235" lon="2.51888">
        <ele>118.86</ele>
        <time>2014-01-17T10:13:45Z</time>
      </trkpt>
      <trkpt lat="49.10228" lon="2.51918">
        <ele>118.38</ele>
        <time>2014-01-17T10:14:00Z</time>
      </trkpt>
      <trkpt lat="49.10222" lon="2.51948">
        <ele>119.34</ele>
        <time>2014-01-17T10:14:14Z</time>
      </trkpt>
      <trkpt lat="49.10215" lon="2.51978">
        <ele>119.82</ele>
        <time>2014-01-17T10:14:29Z</time>
      </trkpt>
      <trkpt lat="49.10206" lon="2.52012">
        <ele>118.86</ele>
        <time>2014-01-17T10:14:47Z</time>
      </trkpt>
      <trkpt lat="49.10197" lon="2.5204">
        <ele>118.86</ele>
        <time>2014-01-17T10:15:02Z</time>
      </trkpt>
      <trkpt lat="49.10189" lon="2.52079">
        <ele>118.86</ele>
        <time>2014-01-17T10:15:22Z</time>
      </trkpt>
      <trkpt lat="49.10184" lon="2.52105">
        <ele>118.38</ele>
        <time>2014-01-17T10:15:39Z</time>
      </trkpt>
      <trkpt lat="49.10183" lon="2.52114">
        <ele>119.82</ele>
        <time>2014-01-17T10:16:07Z</time>
      </trkpt>
      <trkpt lat="49.10182" lon="2.52122">
        <ele>119.34</ele>
        <time>2014-01-17T10:16:23Z</time>
      </trkpt>
      <trkpt lat="49.10173" lon="2.52147">
        <ele>118.86</ele>
        <time>2014-01-17T10:16:37Z</time>
      </trkpt>
      <trkpt lat="49.10173" lon="2.52149">
        <ele>118.86</ele>
        <time>2014-01-17T10:16:38Z</time>
      </trkpt>
      <trkpt lat="49.1017" lon="2.52155">
        <ele>119.34</ele>
        <time>2014-01-17T10:16:43Z</time>
      </trkpt>
      <trkpt lat="49.10167" lon="2.52193">
        <ele>119.82</ele>
        <time>2014-01-17T10:16:59Z</time>
      </trkpt>
      <trkpt lat="49.10163" lon="2.52222">
        <ele>120.78</ele>
        <time>2014-01-17T10:17:13Z</time>
      </trkpt>
      <trkpt lat="49.10157" lon="2.52251">
        <ele>121.74</ele>
        <time>2014-01-17T10:17:27Z</time>
      </trkpt>
      <trkpt lat="49.1015" lon="2.52284">
        <ele>120.3</ele>
        <time>2014-01-17T10:17:43Z</time>
      </trkpt>
      <trkpt lat="49.10145" lon="2.52309">
        <ele>119.34</ele>
        <time>2014-01-17T10:17:57Z</time>
      </trkpt>
      <trkpt lat="49.10137" lon="2.52344">
        <ele>121.26</ele>
        <time>2014-01-17T10:18:13Z</time>
      </trkpt>
      <trkpt lat="49.10131" lon="2.52374">
        <ele>121.26</ele>
        <time>2014-01-17T10:18:28Z</time>
      </trkpt>
      <trkpt lat="49.10124" lon="2.52406">
        <ele>119.82</ele>
        <time>2014-01-17T10:18:45Z</time>
      </trkpt>
      <trkpt lat="49.10113" lon="2.52437">
        <ele>120.78</ele>
        <time>2014-01-17T10:19:02Z</time>
      </trkpt>
      <trkpt lat="49.10091" lon="2.52442">
        <ele>121.74</ele>
        <time>2014-01-17T10:19:19Z</time>
      </trkpt>
      <trkpt lat="49.10086" lon="2.52449">
        <ele>123.67</ele>
        <time>2014-01-17T10:19:26Z</time>
      </trkpt>
      <trkpt lat="49.10081" lon="2.52452">
        <ele>125.59</ele>
        <time>2014-01-17T10:19:31Z</time>
      </trkpt>
      <trkpt lat="49.10068" lon="2.52447">
        <ele>127.99</ele>
        <time>2014-01-17T10:19:39Z</time>
      </trkpt>
      <trkpt lat="49.10047" lon="2.52462">
        <ele>128.95</ele>
        <time>2014-01-17T10:19:56Z</time>
      </trkpt>
      <trkpt lat="49.1004" lon="2.52473">
        <ele>128.47</ele>
        <time>2014-01-17T10:20:03Z</time>
      </trkpt>
      <trkpt lat="49.10025" lon="2.52494">
        <ele>125.11</ele>
        <time>2014-01-17T10:20:18Z</time>
      </trkpt>
      <trkpt lat="49.10018" lon="2.52507">
        <ele>124.15</ele>
        <time>2014-01-17T10:20:25Z</time>
      </trkpt>
      <trkpt lat="49.10012" lon="2.52518">
        <ele>119.82</ele>
        <time>2014-01-17T10:20:36Z</time>
      </trkpt>
      <trkpt lat="49.10002" lon="2.52529">
        <ele>116.46</ele>
        <time>2014-01-17T10:20:43Z</time>
      </trkpt>
      <trkpt lat="49.09993" lon="2.52534">
        <ele>113.57</ele>
        <time>2014-01-17T10:20:50Z</time>
      </trkpt>
      <trkpt lat="49.09966" lon="2.52532">
        <ele>110.21</ele>
        <time>2014-01-17T10:21:08Z</time>
      </trkpt>
      <trkpt lat="49.09962" lon="2.52535">
        <ele>109.25</ele>
        <time>2014-01-17T10:21:24Z</time>
      </trkpt>
      <trkpt lat="49.09949" lon="2.52539">
        <ele>113.57</ele>
        <time>2014-01-17T10:21:38Z</time>
      </trkpt>
      <trkpt lat="49.09941" lon="2.5254">
        <ele>115.5</ele>
        <time>2014-01-17T10:21:53Z</time>
      </trkpt>
      <trkpt lat="49.09939" lon="2.5255">
        <ele>118.86</ele>
        <time>2014-01-17T10:22:31Z</time>
      </trkpt>
      <trkpt lat="49.09939" lon="2.52552">
        <ele>118.86</ele>
        <time>2014-01-17T10:22:41Z</time>
      </trkpt>
    </trkseg>
  </trk>
</gpx>